Observation data for Fort McKavett on 12/08/2019      Previous  Date       Current Mesonet Observations  Soil Data  Daily Summary Page  Observations in Plain Language
KMC1 080600Z 19006KT 12/05 A3011 RMK A01 T01180045  RH  061%=      5-min Rain = 0
KMC1 080601Z 20006KT 12/05 A3011 RMK A01 T01180045  RH  061%=      5-min Rain = 0
KMC1 080602Z 20008KT 12/05 A3011 RMK A01 T01190046  RH  061%=      5-min Rain = 0
KMC1 080603Z 19008KT 12/05 A3011 RMK A01 T01190045  RH  061%=      5-min Rain = 0
KMC1 080604Z 19007KT 12/05 A3011 RMK A01 T01190046  RH  061%=      5-min Rain = 0
KMC1 080605Z 19007G12KT 12/05 A3011 RMK A01 T01190046  RH  061%=      5-min Rain = 0
KMC1 080606Z 19008KT 12/05 A301 RMK A01 T01190045  RH  060%=      5-min Rain = 0
KMC1 080607Z 20006KT 12/05 A301 RMK A01 T01200046  RH  060%=      5-min Rain = 0
KMC1 080608Z 20007KT 12/05 A301 RMK A01 T01200046  RH  060%=      5-min Rain = 0
KMC1 080609Z 20006KT 12/05 A301 RMK A01 T01190046  RH  061%=      5-min Rain = 0
KMC1 080610Z 20007KT 12/05 A301 RMK A01 T01200046  RH  061%=      5-min Rain = 0
KMC1 080611Z 20008KT 12/05 A301 RMK A01 T01200046  RH  061%=      5-min Rain = 0
KMC1 080612Z 20006KT 12/05 A301 RMK A01 T01200046  RH  060%=      5-min Rain = 0
KMC1 080613Z 19006KT 12/05 A301 RMK A01 T01210046  RH  060%=      5-min Rain = 0
KMC1 080614Z 20008G14KT 12/05 A301 RMK A01 T01210046  RH  060%=      5-min Rain = 0
KMC1 080615Z 20008KT 12/05 A301 RMK A01 T01210046  RH  060%=      5-min Rain = 0
KMC1 080616Z 20008G13KT 12/05 A301 RMK A01 T01220046  RH  060%=      5-min Rain = 0
KMC1 080617Z 21008KT 12/05 A301 RMK A01 T01210046  RH  060%=      5-min Rain = 0
KMC1 080618Z 20006KT 12/05 A301 RMK A01 T01210046  RH  060%=      5-min Rain = 0
KMC1 080619Z 20008KT 12/05 A301 RMK A01 T01210046  RH  060%=      5-min Rain = 0
KMC1 080620Z 20008KT 12/05 A301 RMK A01 T01210046  RH  060%=      5-min Rain = 0
KMC1 080621Z 20006KT 12/05 A301 RMK A01 T01210046  RH  060%=      5-min Rain = 0
KMC1 080622Z 20009KT 12/05 A301 RMK A01 T01210046  RH  060%=      5-min Rain = 0
KMC1 080623Z 20006KT 12/05 A301 RMK A01 T01220046  RH  060%=      5-min Rain = 0
KMC1 080624Z 20007G12KT 12/05 A301 RMK A01 T01220046  RH  060%=      5-min Rain = 0
KMC1 080625Z 20005KT 12/05 A301 RMK A01 T01220046  RH  060%=      5-min Rain = 0
KMC1 080626Z 20006KT 12/05 A301 RMK A01 T01210046  RH  060%=      5-min Rain = 0
KMC1 080627Z 20008KT 12/05 A301 RMK A01 T01200046  RH  060%=      5-min Rain = 0
KMC1 080628Z 21007KT 12/05 A301 RMK A01 T01210046  RH  060%=      5-min Rain = 0
KMC1 080629Z 20007KT 12/05 A301 RMK A01 T01210046  RH  060%=      5-min Rain = 0
KMC1 080630Z 21006KT 12/05 A301 RMK A01 T01210046  RH  060%=      5-min Rain = 0
KMC1 080631Z 21008KT 12/05 A301 RMK A01 T01210046  RH  060%=      5-min Rain = 0
KMC1 080632Z 20007KT 12/05 A301 RMK A01 T01210046  RH  060%=      5-min Rain = 0
KMC1 080633Z 21008KT 12/05 A301 RMK A01 T01210046  RH  060%=      5-min Rain = 0
KMC1 080634Z 20007KT 12/05 A301 RMK A01 T01200046  RH  060%=      5-min Rain = 0
KMC1 080635Z 21005KT 12/05 A301 RMK A01 T01200046  RH  060%=      5-min Rain = 0
KMC1 080636Z 21008KT 12/05 A301 RMK A01 T01200046  RH  060%=      5-min Rain = 0
KMC1 080637Z 21008KT 12/05 A301 RMK A01 T01200046  RH  060%=      5-min Rain = 0
KMC1 080638Z 21005KT 12/05 A301 RMK A01 T01200046  RH  060%=      5-min Rain = 0
KMC1 080639Z 21005KT 12/05 A301 RMK A01 T01200046  RH  060%=      5-min Rain = 0
KMC1 080640Z 20005KT 12/05 A301 RMK A01 T01200046  RH  060%=      5-min Rain = 0
KMC1 080641Z 20007KT 12/05 A301 RMK A01 T01190046  RH  061%=      5-min Rain = 0
KMC1 080642Z 21006KT 12/05 A301 RMK A01 T01190046  RH  061%=      5-min Rain = 0
KMC1 080643Z 21005KT 12/05 A301 RMK A01 T01190046  RH  061%=      5-min Rain = 0
KMC1 080644Z 20005KT 12/05 A301 RMK A01 T01190046  RH  061%=      5-min Rain = 0
KMC1 080645Z 20007KT 12/05 A301 RMK A01 T01190045  RH  061%=      5-min Rain = 0
KMC1 080646Z 20005KT 12/05 A301 RMK A01 T01190046  RH  061%=      5-min Rain = 0
KMC1 080647Z 19005KT 12/05 A301 RMK A01 T01190046  RH  061%=      5-min Rain = 0
KMC1 080648Z 19005KT 12/05 A301 RMK A01 T01180045  RH  061%=      5-min Rain = 0
KMC1 080649Z 19007KT 12/05 A301 RMK A01 T01170045  RH  061%=      5-min Rain = 0
KMC1 080650Z 20004KT 12/05 A3009 RMK A01 T01170045  RH  061%=      5-min Rain = 0
KMC1 080651Z 19005KT 12/05 A3009 RMK A01 T01180045  RH  061%=      5-min Rain = 0
KMC1 080652Z 20005KT 12/05 A3009 RMK A01 T01180045  RH  061%=      5-min Rain = 0
KMC1 080653Z 20006KT 12/05 A3009 RMK A01 T01180045  RH  061%=      5-min Rain = 0
KMC1 080654Z 20005KT 12/05 A301 RMK A01 T01180045  RH  061%=      5-min Rain = 0
KMC1 080655Z 20005KT 12/05 A301 RMK A01 T01180046  RH  061%=      5-min Rain = 0
KMC1 080656Z 21005KT 12/05 A301 RMK A01 T01180045  RH  061%=      5-min Rain = 0
KMC1 080657Z 20005KT 12/05 A301 RMK A01 T01180045  RH  061%=      5-min Rain = 0
KMC1 080658Z 21006KT 12/05 A301 RMK A01 T01180045  RH  061%=      5-min Rain = 0
KMC1 080659Z 20006KT 12/05 A301 RMK A01 T01180046  RH  061%=      5-min Rain = 0
KMC1 080700Z 20006KT 12/05 A301 RMK A01 T01180046  RH  061%=      5-min Rain = 0
KMC1 080701Z 20005KT 12/05 A301 RMK A01 T01180046  RH  061%=      5-min Rain = 0
KMC1 080702Z 20005KT 12/05 A301 RMK A01 T01180046  RH  061%=      5-min Rain = 0
KMC1 080703Z 20004KT 12/05 A301 RMK A01 T01180046  RH  061%=      5-min Rain = 0
KMC1 080704Z 20004KT 12/05 A301 RMK A01 T01180046  RH  061%=      5-min Rain = 0
KMC1 080705Z 19005KT 12/05 A301 RMK A01 T01180046  RH  061%=      5-min Rain = 0
KMC1 080706Z 20006KT 12/05 A301 RMK A01 T01180046  RH  061%=      5-min Rain = 0
KMC1 080707Z 20005KT 12/05 A301 RMK A01 T01180046  RH  061%=      5-min Rain = 0
KMC1 080708Z 20006KT 12/05 A301 RMK A01 T01180046  RH  061%=      5-min Rain = 0
KMC1 080709Z 21006KT 12/05 A301 RMK A01 T01180046  RH  061%=      5-min Rain = 0
KMC1 080710Z 21005KT 12/05 A301 RMK A01 T01180046  RH  061%=      5-min Rain = 0
KMC1 080711Z 20005KT 12/05 A301 RMK A01 T01190046  RH  061%=      5-min Rain = 0
KMC1 080712Z 20004KT 12/05 A301 RMK A01 T01190046  RH  061%=      5-min Rain = 0
KMC1 080713Z 20005KT 12/05 A301 RMK A01 T01190046  RH  061%=      5-min Rain = 0
KMC1 080714Z 20006KT 12/05 A301 RMK A01 T01190046  RH  061%=      5-min Rain = 0
KMC1 080715Z 19005KT 12/05 A301 RMK A01 T01190046  RH  061%=      5-min Rain = 0
KMC1 080716Z 19005KT 12/05 A301 RMK A01 T01190046  RH  061%=      5-min Rain = 0
KMC1 080717Z 19005KT 12/05 A301 RMK A01 T01190046  RH  061%=      5-min Rain = 0
KMC1 080718Z 19005KT 12/05 A301 RMK A01 T01190046  RH  061%=      5-min Rain = 0
KMC1 080719Z 19007KT 12/05 A301 RMK A01 T01190046  RH  061%=      5-min Rain = 0
KMC1 080720Z 19005KT 12/05 A301 RMK A01 T01190046  RH  061%=      5-min Rain = 0
KMC1 080721Z 19005KT 12/05 A301 RMK A01 T01190046  RH  061%=      5-min Rain = 0
KMC1 080722Z 19005KT 12/05 A3009 RMK A01 T01190046  RH  061%=      5-min Rain = 0
KMC1 080723Z 19005KT 12/05 A3009 RMK A01 T01180046  RH  061%=      5-min Rain = 0
KMC1 080724Z 19005KT 12/05 A3009 RMK A01 T01180046  RH  061%=      5-min Rain = 0
KMC1 080725Z 20005KT 12/05 A3009 RMK A01 T01180046  RH  061%=      5-min Rain = 0
KMC1 080726Z 20005KT 12/05 A3009 RMK A01 T01180046  RH  061%=      5-min Rain = 0
KMC1 080727Z 20005KT 12/05 A3009 RMK A01 T01180046  RH  061%=      5-min Rain = 0
KMC1 080728Z 19006KT 12/05 A3009 RMK A01 T01180046  RH  061%=      5-min Rain = 0
KMC1 080729Z 19006KT 12/05 A3009 RMK A01 T01170046  RH  062%=      5-min Rain = 0
KMC1 080730Z 19006KT 12/05 A3009 RMK A01 T01170046  RH  062%=      5-min Rain = 0
KMC1 080731Z 19006KT 12/05 A3009 RMK A01 T01170046  RH  062%=      5-min Rain = 0
KMC1 080732Z 20005KT 12/05 A3009 RMK A01 T01170046  RH  062%=      5-min Rain = 0
KMC1 080733Z 19005KT 12/05 A3009 RMK A01 T01170046  RH  062%=      5-min Rain = 0
KMC1 080734Z 19005KT 12/05 A3009 RMK A01 T01160046  RH  062%=      5-min Rain = 0
KMC1 080735Z 20005KT 12/05 A3009 RMK A01 T01160046  RH  062%=      5-min Rain = 0
KMC1 080736Z 19005KT 12/05 A3009 RMK A01 T01160046  RH  062%=      5-min Rain = 0
KMC1 080737Z 20005KT 12/05 A3009 RMK A01 T01160046  RH  062%=      5-min Rain = 0
KMC1 080738Z 19005KT 12/05 A3009 RMK A01 T01150046  RH  062%=      5-min Rain = 0
KMC1 080739Z 19005KT 12/05 A3009 RMK A01 T01150046  RH  062%=      5-min Rain = 0
KMC1 080740Z 19005KT 12/05 A3009 RMK A01 T01150046  RH  063%=      5-min Rain = 0
KMC1 080741Z 20005KT 12/05 A3009 RMK A01 T01150046  RH  063%=      5-min Rain = 0
KMC1 080742Z 20005KT 11/05 A3009 RMK A01 T01140046  RH  063%=      5-min Rain = 0
KMC1 080743Z 19004KT 11/05 A3009 RMK A01 T01140045  RH  063%=      5-min Rain = 0
KMC1 080744Z 18005KT 11/05 A3009 RMK A01 T01130045  RH  063%=      5-min Rain = 0
KMC1 080745Z 19005KT 11/05 A3009 RMK A01 T01130045  RH  063%=      5-min Rain = 0
KMC1 080746Z 19005KT 11/05 A3008 RMK A01 T01120045  RH  063%=      5-min Rain = 0
KMC1 080747Z 19004KT 11/05 A3008 RMK A01 T01120045  RH  063%=      5-min Rain = 0
KMC1 080748Z 19005KT 11/05 A3008 RMK A01 T01130045  RH  063%=      5-min Rain = 0
KMC1 080749Z 19004KT 11/05 A3008 RMK A01 T01120045  RH  063%=      5-min Rain = 0
KMC1 080750Z 19004KT 11/05 A3008 RMK A01 T01110045  RH  064%=      5-min Rain = 0
KMC1 080751Z 20004KT 11/05 A3008 RMK A01 T01110045  RH  064%=      5-min Rain = 0
KMC1 080752Z 20004KT 11/05 A3008 RMK A01 T01110045  RH  064%=      5-min Rain = 0
KMC1 080753Z 20004KT 11/05 A3008 RMK A01 T01110046  RH  064%=      5-min Rain = 0
KMC1 080754Z 19005KT 11/05 A3008 RMK A01 T01110045  RH  064%=      5-min Rain = 0
KMC1 080755Z 20004KT 11/05 A3008 RMK A01 T01110045  RH  064%=      5-min Rain = 0
KMC1 080756Z 19004KT 11/05 A3008 RMK A01 T01100045  RH  064%=      5-min Rain = 0
KMC1 080757Z 20004KT 11/05 A3008 RMK A01 T01100045  RH  064%=      5-min Rain = 0
KMC1 080758Z 19004KT 11/05 A3008 RMK A01 T01090045  RH  064%=      5-min Rain = 0
KMC1 080759Z 20005KT 11/05 A3008 RMK A01 T01090045  RH  065%=      5-min Rain = 0
KMC1 080800Z 19004KT 11/05 A3008 RMK A01 T01090045  RH  065%=      5-min Rain = 0
KMC1 080801Z 19005KT 11/05 A3008 RMK A01 T01090045  RH  065%=      5-min Rain = 0
KMC1 080802Z 19005KT 11/05 A3008 RMK A01 T01090045  RH  065%=      5-min Rain = 0
KMC1 080803Z 19004KT 11/05 A3008 RMK A01 T01080045  RH  065%=      5-min Rain = 0
KMC1 080804Z 19005KT 11/05 A3008 RMK A01 T01080045  RH  065%=      5-min Rain = 0
KMC1 080805Z 19004KT 11/05 A3008 RMK A01 T01080045  RH  065%=      5-min Rain = 0
KMC1 080806Z 20004KT 11/05 A3008 RMK A01 T01080045  RH  065%=      5-min Rain = 0
KMC1 080807Z 19004KT 11/05 A3008 RMK A01 T01070045  RH  065%=      5-min Rain = 0
KMC1 080808Z 19004KT 11/05 A3008 RMK A01 T01070045  RH  065%=      5-min Rain = 0
KMC1 080809Z 19004KT 11/05 A3008 RMK A01 T01070045  RH  065%=      5-min Rain = 0
KMC1 080810Z 19005KT 11/05 A3008 RMK A01 T01070045  RH  066%=      5-min Rain = 0
KMC1 080811Z 20004KT 11/05 A3008 RMK A01 T01070045  RH  066%=      5-min Rain = 0
KMC1 080812Z 20004KT 11/05 A3008 RMK A01 T01070045  RH  066%=      5-min Rain = 0
KMC1 080813Z 19004KT 11/05 A3008 RMK A01 T01060045  RH  066%=      5-min Rain = 0
KMC1 080814Z 20004KT 11/04 A3008 RMK A01 T01050044  RH  066%=      5-min Rain = 0
KMC1 080815Z 20005KT 11/04 A3008 RMK A01 T01050044  RH  066%=      5-min Rain = 0
KMC1 080816Z 19005KT 11/05 A3008 RMK A01 T01050045  RH  066%=      5-min Rain = 0
KMC1 080817Z 19005KT 11/05 A3008 RMK A01 T01050045  RH  066%=      5-min Rain = 0
KMC1 080818Z 19005KT 11/05 A3007 RMK A01 T01050045  RH  066%=      5-min Rain = 0
KMC1 080819Z 19004KT 11/05 A3007 RMK A01 T01060045  RH  066%=      5-min Rain = 0
KMC1 080820Z 19005KT 11/05 A3007 RMK A01 T01060045  RH  066%=      5-min Rain = 0
KMC1 080821Z 19005KT 11/05 A3007 RMK A01 T01060045  RH  066%=      5-min Rain = 0
KMC1 080822Z 18004KT 11/05 A3007 RMK A01 T01060045  RH  066%=      5-min Rain = 0
KMC1 080823Z 19005KT 11/05 A3007 RMK A01 T01050045  RH  066%=      5-min Rain = 0
KMC1 080824Z 19004KT 11/05 A3007 RMK A01 T01050045  RH  066%=      5-min Rain = 0
KMC1 080825Z 19004KT 10/05 A3007 RMK A01 T01040045  RH  067%=      5-min Rain = 0
KMC1 080826Z 18005KT 10/05 A3007 RMK A01 T01040045  RH  067%=      5-min Rain = 0
KMC1 080827Z 19004KT 10/05 A3007 RMK A01 T01040045  RH  067%=      5-min Rain = 0
KMC1 080828Z 18005KT 10/05 A3006 RMK A01 T01040045  RH  067%=      5-min Rain = 0
KMC1 080829Z 19004KT 10/05 A3006 RMK A01 T01040045  RH  067%=      5-min Rain = 0
KMC1 080830Z 19004KT 10/05 A3006 RMK A01 T01040045  RH  067%=      5-min Rain = 0
KMC1 080831Z 18004KT 10/05 A3006 RMK A01 T01040045  RH  067%=      5-min Rain = 0
KMC1 080832Z 19004KT 10/05 A3006 RMK A01 T01030045  RH  067%=      5-min Rain = 0
KMC1 080833Z 19004KT 10/05 A3006 RMK A01 T01030045  RH  067%=      5-min Rain = 0
KMC1 080834Z 20004KT 10/05 A3006 RMK A01 T01030045  RH  067%=      5-min Rain = 0
KMC1 080835Z 19005KT 10/05 A3006 RMK A01 T01030045  RH  067%=      5-min Rain = 0
KMC1 080836Z 19004KT 10/05 A3006 RMK A01 T01030045  RH  067%=      5-min Rain = 0
KMC1 080837Z 20004KT 10/05 A3006 RMK A01 T01030045  RH  067%=      5-min Rain = 0
KMC1 080838Z 20005KT 10/05 A3006 RMK A01 T01020045  RH  067%=      5-min Rain = 0
KMC1 080839Z 20005KT 10/05 A3006 RMK A01 T01020045  RH  068%=      5-min Rain = 0
KMC1 080840Z 21004KT 10/05 A3006 RMK A01 T01020045  RH  068%=      5-min Rain = 0
KMC1 080841Z 20004KT 10/05 A3006 RMK A01 T01020045  RH  068%=      5-min Rain = 0
KMC1 080842Z 20004KT 10/05 A3006 RMK A01 T01010045  RH  068%=      5-min Rain = 0
KMC1 080843Z 20004KT 10/04 A3006 RMK A01 T01010044  RH  068%=      5-min Rain = 0
KMC1 080844Z 19005KT 10/05 A3006 RMK A01 T01010045  RH  068%=      5-min Rain = 0
KMC1 080845Z 21004KT 10/04 A3006 RMK A01 T01000044  RH  068%=      5-min Rain = 0
KMC1 080846Z 20004KT 10/04 A3006 RMK A01 T01000044  RH  068%=      5-min Rain = 0
KMC1 080847Z 20003KT 10/05 A3006 RMK A01 T00990045  RH  069%=      5-min Rain = 0
KMC1 080848Z 20003KT 10/05 A3006 RMK A01 T00990045  RH  069%=      5-min Rain = 0
KMC1 080849Z 20003KT 10/05 A3006 RMK A01 T00990045  RH  069%=      5-min Rain = 0
KMC1 080850Z 20004KT 10/04 A3006 RMK A01 T00990044  RH  069%=      5-min Rain = 0
KMC1 080851Z 20004KT 10/05 A3006 RMK A01 T00990045  RH  069%=      5-min Rain = 0
KMC1 080852Z 20004KT 10/04 A3006 RMK A01 T00990044  RH  069%=      5-min Rain = 0
KMC1 080853Z 20004KT 10/05 A3006 RMK A01 T00990045  RH  069%=      5-min Rain = 0
KMC1 080854Z 20004KT 10/04 A3006 RMK A01 T00980044  RH  069%=      5-min Rain = 0
KMC1 080855Z 19004KT 10/04 A3006 RMK A01 T00980044  RH  069%=      5-min Rain = 0
KMC1 080856Z 20003KT 10/05 A3006 RMK A01 T00980045  RH  069%=      5-min Rain = 0
KMC1 080857Z 20004KT 10/05 A3006 RMK A01 T00980045  RH  069%=      5-min Rain = 0
KMC1 080858Z 20003KT 10/05 A3006 RMK A01 T00990045  RH  069%=      5-min Rain = 0
KMC1 080859Z 20003KT 10/04 A3006 RMK A01 T00980044  RH  069%=      5-min Rain = 0
KMC1 080900Z 19004KT 10/04 A3006 RMK A01 T00980044  RH  069%=      5-min Rain = 0
KMC1 080901Z 20004KT 10/04 A3006 RMK A01 T00980044  RH  069%=      5-min Rain = 0
KMC1 080902Z 20003KT 10/04 A3006 RMK A01 T00980044  RH  069%=      5-min Rain = 0
KMC1 080903Z 20004KT 10/05 A3005 RMK A01 T00980045  RH  069%=      5-min Rain = 0
KMC1 080904Z 19004KT 10/04 A3005 RMK A01 T00980044  RH  069%=      5-min Rain = 0
KMC1 080905Z 19003KT 10/05 A3005 RMK A01 T00980045  RH  070%=      5-min Rain = 0
KMC1 080906Z 19004KT 10/04 A3005 RMK A01 T00970044  RH  070%=      5-min Rain = 0
KMC1 080907Z 19004KT 10/05 A3005 RMK A01 T00970045  RH  070%=      5-min Rain = 0
KMC1 080908Z 20005KT 10/05 A3005 RMK A01 T00970045  RH  070%=      5-min Rain = 0
KMC1 080909Z 20004KT 10/05 A3005 RMK A01 T00980045  RH  069%=      5-min Rain = 0
KMC1 080910Z 20004KT 10/05 A3005 RMK A01 T00980045  RH  069%=      5-min Rain = 0
KMC1 080911Z 20004KT 10/05 A3005 RMK A01 T00970045  RH  070%=      5-min Rain = 0
KMC1 080912Z 19003KT 10/05 A3005 RMK A01 T00980045  RH  070%=      5-min Rain = 0
KMC1 080913Z 20004KT 10/05 A3005 RMK A01 T00980045  RH  070%=      5-min Rain = 0
KMC1 080914Z 20004KT 10/05 A3005 RMK A01 T00980045  RH  070%=      5-min Rain = 0
KMC1 080915Z 20003KT 10/05 A3005 RMK A01 T00980045  RH  069%=      5-min Rain = 0
KMC1 080916Z 19003KT 10/05 A3005 RMK A01 T00980045  RH  069%=      5-min Rain = 0
KMC1 080917Z 19004KT 10/05 A3005 RMK A01 T00980045  RH  070%=      5-min Rain = 0
KMC1 080918Z 20003KT 10/05 A3005 RMK A01 T00980046  RH  070%=      5-min Rain = 0
KMC1 080919Z 20003KT 10/05 A3005 RMK A01 T00980045  RH  070%=      5-min Rain = 0
KMC1 080920Z 20004KT 10/05 A3005 RMK A01 T00990046  RH  070%=      5-min Rain = 0
KMC1 080921Z 21003KT 10/05 A3005 RMK A01 T00990046  RH  069%=      5-min Rain = 0
KMC1 080922Z 20003KT 10/05 A3005 RMK A01 T00990045  RH  069%=      5-min Rain = 0
KMC1 080923Z 20002KT 10/05 A3005 RMK A01 T00990046  RH  069%=      5-min Rain = 0
KMC1 080924Z 20003KT 10/05 A3005 RMK A01 T00990046  RH  070%=      5-min Rain = 0
KMC1 080925Z 21003KT 10/05 A3005 RMK A01 T00990046  RH  070%=      5-min Rain = 0
KMC1 080926Z 20003KT 10/05 A3005 RMK A01 T00990046  RH  070%=      5-min Rain = 0
KMC1 080927Z 20003KT 10/05 A3005 RMK A01 T00990046  RH  070%=      5-min Rain = 0
KMC1 080928Z 19003KT 10/05 A3005 RMK A01 T00990046  RH  070%=      5-min Rain = 0
KMC1 080929Z 19003KT 10/05 A3004 RMK A01 T00990046  RH  069%=      5-min Rain = 0
KMC1 080930Z 19003KT 10/05 A3004 RMK A01 T00990046  RH  069%=      5-min Rain = 0
KMC1 080931Z 18004KT 10/05 A3004 RMK A01 T00990046  RH  069%=      5-min Rain = 0
KMC1 080932Z 18004KT 10/05 A3004 RMK A01 T01000046  RH  069%=      5-min Rain = 0
KMC1 080933Z 19004KT 10/05 A3004 RMK A01 T00990046  RH  069%=      5-min Rain = 0
KMC1 080934Z 19004KT 10/05 A3004 RMK A01 T00990046  RH  070%=      5-min Rain = 0
KMC1 080935Z 19005KT 10/05 A3004 RMK A01 T00990046  RH  070%=      5-min Rain = 0
KMC1 080936Z 20004KT 10/05 A3004 RMK A01 T00990047  RH  070%=      5-min Rain = 0
KMC1 080937Z 19004KT 10/05 A3004 RMK A01 T00990047  RH  070%=      5-min Rain = 0
KMC1 080938Z 18004KT 10/05 A3004 RMK A01 T01000047  RH  070%=      5-min Rain = 0
KMC1 080939Z 19004KT 10/05 A3004 RMK A01 T01000047  RH  069%=      5-min Rain = 0
KMC1 080940Z 19005KT 10/05 A3004 RMK A01 T01010047  RH  069%=      5-min Rain = 0
KMC1 080941Z 20004KT 10/05 A3004 RMK A01 T01020047  RH  069%=      5-min Rain = 0
KMC1 080942Z 19004KT 10/05 A3004 RMK A01 T01020047  RH  069%=      5-min Rain = 0
KMC1 080943Z 20004KT 10/05 A3004 RMK A01 T01010047  RH  069%=      5-min Rain = 0
KMC1 080944Z 19005KT 10/05 A3003 RMK A01 T01010047  RH  069%=      5-min Rain = 0
KMC1 080945Z 19004KT 10/05 A3003 RMK A01 T01000047  RH  069%=      5-min Rain = 0
KMC1 080946Z 20004KT 10/05 A3003 RMK A01 T01000047  RH  069%=      5-min Rain = 0
KMC1 080947Z 19005KT 10/05 A3003 RMK A01 T01000047  RH  069%=      5-min Rain = 0
KMC1 080948Z 19004KT 10/05 A3003 RMK A01 T01000047  RH  070%=      5-min Rain = 0
KMC1 080949Z 19004KT 10/05 A3003 RMK A01 T01000047  RH  070%=      5-min Rain = 0
KMC1 080950Z 20004KT 10/05 A3003 RMK A01 T01000047  RH  070%=      5-min Rain = 0
KMC1 080951Z 20004KT 10/05 A3003 RMK A01 T00990047  RH  070%=      5-min Rain = 0
KMC1 080952Z 20004KT 10/05 A3003 RMK A01 T00990047  RH  070%=      5-min Rain = 0
KMC1 080953Z 20004KT 10/05 A3003 RMK A01 T00990047  RH  070%=      5-min Rain = 0
KMC1 080954Z 20005KT 10/05 A3003 RMK A01 T00990047  RH  070%=      5-min Rain = 0
KMC1 080955Z 21005KT 10/05 A3003 RMK A01 T00990047  RH  070%=      5-min Rain = 0
KMC1 080956Z 20004KT 10/05 A3003 RMK A01 T00990047  RH  070%=      5-min Rain = 0
KMC1 080957Z 20005KT 10/05 A3003 RMK A01 T01000047  RH  070%=      5-min Rain = 0
KMC1 080958Z 20005KT 10/05 A3003 RMK A01 T01000047  RH  070%=      5-min Rain = 0
KMC1 080959Z 19004KT 10/05 A3003 RMK A01 T01000047  RH  070%=      5-min Rain = 0
KMC1 081000Z 19005KT 10/05 A3003 RMK A01 T01000047  RH  070%=      5-min Rain = 0
KMC1 081001Z 20004KT 10/05 A3003 RMK A01 T01000047  RH  070%=      5-min Rain = 0
KMC1 081002Z 19003KT 10/05 A3003 RMK A01 T01000047  RH  070%=      5-min Rain = 0
KMC1 081003Z 19003KT 10/05 A3003 RMK A01 T01000047  RH  069%=      5-min Rain = 0
KMC1 081004Z 19003KT 10/05 A3003 RMK A01 T01000047  RH  070%=      5-min Rain = 0
KMC1 081005Z 19003KT 10/05 A3003 RMK A01 T01000047  RH  070%=      5-min Rain = 0
KMC1 081006Z 20004KT 10/05 A3003 RMK A01 T01000047  RH  070%=      5-min Rain = 0
KMC1 081007Z 19003KT 10/05 A3003 RMK A01 T01000047  RH  070%=      5-min Rain = 0
KMC1 081008Z 20003KT 10/05 A3003 RMK A01 T01000047  RH  069%=      5-min Rain = 0
KMC1 081009Z 20003KT 10/05 A3003 RMK A01 T01000047  RH  069%=      5-min Rain = 0
KMC1 081010Z 20003KT 10/05 A3003 RMK A01 T01000047  RH  069%=      5-min Rain = 0
KMC1 081011Z 19004KT 10/05 A3003 RMK A01 T01000047  RH  070%=      5-min Rain = 0
KMC1 081012Z 19003KT 10/05 A3003 RMK A01 T01000047  RH  069%=      5-min Rain = 0
KMC1 081013Z 20003KT 10/05 A3003 RMK A01 T01010047  RH  069%=      5-min Rain = 0
KMC1 081014Z 20003KT 10/05 A3003 RMK A01 T01010047  RH  069%=      5-min Rain = 0
KMC1 081015Z 20003KT 10/05 A3003 RMK A01 T01010048  RH  070%=      5-min Rain = 0
KMC1 081016Z 19006KT 10/05 A3003 RMK A01 T01010048  RH  070%=      5-min Rain = 0
KMC1 081017Z 19005KT 10/05 A3003 RMK A01 T01020049  RH  069%=      5-min Rain = 0
KMC1 081018Z 20004KT 10/05 A3003 RMK A01 T01030048  RH  069%=      5-min Rain = 0
KMC1 081019Z 21003KT 10/05 A3003 RMK A01 T01040048  RH  068%=      5-min Rain = 0
KMC1 081020Z 21003KT 10/05 A3003 RMK A01 T01040048  RH  068%=      5-min Rain = 0
KMC1 081021Z 20003KT 10/05 A3003 RMK A01 T01040048  RH  068%=      5-min Rain = 0
KMC1 081022Z 21003KT 10/05 A3003 RMK A01 T01030048  RH  068%=      5-min Rain = 0
KMC1 081023Z 22003KT 10/05 A3003 RMK A01 T01040048  RH  068%=      5-min Rain = 0
KMC1 081024Z 22003KT 10/05 A3003 RMK A01 T01030048  RH  068%=      5-min Rain = 0
KMC1 081025Z 22003KT 10/05 A3003 RMK A01 T01020047  RH  069%=      5-min Rain = 0
KMC1 081026Z 22004KT 10/05 A3003 RMK A01 T01010047  RH  069%=      5-min Rain = 0
KMC1 081027Z 21004KT 10/05 A3003 RMK A01 T01010047  RH  069%=      5-min Rain = 0
KMC1 081028Z 22004KT 10/05 A3003 RMK A01 T01000048  RH  070%=      5-min Rain = 0
KMC1 081029Z 22004KT 10/05 A3003 RMK A01 T01000048  RH  070%=      5-min Rain = 0
KMC1 081030Z 22003KT 10/05 A3003 RMK A01 T00990047  RH  070%=      5-min Rain = 0
KMC1 081031Z 20003KT 10/05 A3003 RMK A01 T00990047  RH  070%=      5-min Rain = 0
KMC1 081032Z 20003KT 10/05 A3003 RMK A01 T00990047  RH  070%=      5-min Rain = 0
KMC1 081033Z 21003KT 10/05 A3003 RMK A01 T00990047  RH  070%=      5-min Rain = 0
KMC1 081034Z 21003KT 10/05 A3003 RMK A01 T00990047  RH  070%=      5-min Rain = 0
KMC1 081035Z 21003KT 10/05 A3003 RMK A01 T00990047  RH  070%=      5-min Rain = 0
KMC1 081036Z 23003KT 10/05 A3003 RMK A01 T00990047  RH  070%=      5-min Rain = 0
KMC1 081037Z 23003KT 10/05 A3003 RMK A01 T00990047  RH  070%=      5-min Rain = 0
KMC1 081038Z 22003KT 10/05 A3003 RMK A01 T00980047  RH  070%=      5-min Rain = 0
KMC1 081039Z 23003KT 10/05 A3003 RMK A01 T00980047  RH  071%=      5-min Rain = 0
KMC1 081040Z 23003KT 10/05 A3003 RMK A01 T00990047  RH  070%=      5-min Rain = 0
KMC1 081041Z 22002KT 10/05 A3003 RMK A01 T00990047  RH  070%=      5-min Rain = 0
KMC1 081042Z 23002KT 10/05 A3003 RMK A01 T00990047  RH  070%=      5-min Rain = 0
KMC1 081043Z 23003KT 10/05 A3003 RMK A01 T00980047  RH  070%=      5-min Rain = 0
KMC1 081044Z 25003KT 10/05 A3003 RMK A01 T00980047  RH  071%=      5-min Rain = 0
KMC1 081045Z 24003KT 10/05 A3003 RMK A01 T00970046  RH  071%=      5-min Rain = 0
KMC1 081046Z 23003KT 10/05 A3003 RMK A01 T00970046  RH  071%=      5-min Rain = 0
KMC1 081047Z 22003KT 10/05 A3003 RMK A01 T00960046  RH  071%=      5-min Rain = 0
KMC1 081048Z 22003KT 10/05 A3003 RMK A01 T00960047  RH  071%=      5-min Rain = 0
KMC1 081049Z 23003KT 10/05 A3003 RMK A01 T00960046  RH  071%=      5-min Rain = 0
KMC1 081050Z 22002KT 10/05 A3003 RMK A01 T00960046  RH  071%=      5-min Rain = 0
KMC1 081051Z 22003KT 10/05 A3003 RMK A01 T00960047  RH  071%=      5-min Rain = 0
KMC1 081052Z 22002KT 10/05 A3003 RMK A01 T00960047  RH  071%=      5-min Rain = 0
KMC1 081053Z 21003KT 10/05 A3003 RMK A01 T00960047  RH  071%=      5-min Rain = 0
KMC1 081054Z 20003KT 10/05 A3003 RMK A01 T00960047  RH  071%=      5-min Rain = 0
KMC1 081055Z 22004KT 10/05 A3003 RMK A01 T00960046  RH  071%=      5-min Rain = 0
KMC1 081056Z 21003KT 10/05 A3003 RMK A01 T00960047  RH  071%=      5-min Rain = 0
KMC1 081057Z 20004KT 10/05 A3003 RMK A01 T00970046  RH  071%=      5-min Rain = 0
KMC1 081058Z 20003KT 10/05 A3002 RMK A01 T00970047  RH  071%=      5-min Rain = 0
KMC1 081059Z 19004KT 10/05 A3002 RMK A01 T00970047  RH  071%=      5-min Rain = 0
KMC1 081100Z 20005KT 10/05 A3002 RMK A01 T00970047  RH  071%=      5-min Rain = 0
KMC1 081101Z 20004KT 10/05 A3002 RMK A01 T00970047  RH  071%=      5-min Rain = 0
KMC1 081102Z 20005KT 10/05 A3002 RMK A01 T00980048  RH  071%=      5-min Rain = 0
KMC1 081103Z 20004KT 10/05 A3002 RMK A01 T00980047  RH  071%=      5-min Rain = 0
KMC1 081104Z 20005KT 10/05 A3002 RMK A01 T00980048  RH  071%=      5-min Rain = 0
KMC1 081105Z 20004KT 10/05 A3002 RMK A01 T00970047  RH  071%=      5-min Rain = 0
KMC1 081106Z 20004KT 10/05 A3002 RMK A01 T00980047  RH  071%=      5-min Rain = 0
KMC1 081107Z 21004KT 10/05 A3002 RMK A01 T00980048  RH  071%=      5-min Rain = 0
KMC1 081108Z 20003KT 10/05 A3002 RMK A01 T00970048  RH  071%=      5-min Rain = 0
KMC1 081109Z 19003KT 10/05 A3002 RMK A01 T00970047  RH  071%=      5-min Rain = 0
KMC1 081110Z 20004KT 10/05 A3002 RMK A01 T00970048  RH  071%=      5-min Rain = 0
KMC1 081111Z 20003KT 10/05 A3002 RMK A01 T00970047  RH  071%=      5-min Rain = 0
KMC1 081112Z 20004KT 10/05 A3002 RMK A01 T00980048  RH  071%=      5-min Rain = 0
KMC1 081113Z 20002KT 10/05 A3002 RMK A01 T00980047  RH  071%=      5-min Rain = 0
KMC1 081114Z 20003KT 10/05 A3002 RMK A01 T00980048  RH  071%=      5-min Rain = 0
KMC1 081115Z 20005KT 10/05 A3002 RMK A01 T00980048  RH  071%=      5-min Rain = 0
KMC1 081116Z 21004KT 10/05 A3002 RMK A01 T00990048  RH  071%=      5-min Rain = 0
KMC1 081117Z 21004KT 10/05 A3002 RMK A01 T01000048  RH  070%=      5-min Rain = 0
KMC1 081118Z 21004KT 10/05 A3002 RMK A01 T01000048  RH  070%=      5-min Rain = 0
KMC1 081119Z 22003KT 10/05 A3002 RMK A01 T00990048  RH  070%=      5-min Rain = 0
KMC1 081120Z 21006KT 10/05 A3002 RMK A01 T00990048  RH  071%=      5-min Rain = 0
KMC1 081121Z 21005KT 10/05 A3002 RMK A01 T00990049  RH  071%=      5-min Rain = 0
KMC1 081122Z 21004KT 10/05 A3002 RMK A01 T01000049  RH  070%=      5-min Rain = 0
KMC1 081123Z 22003KT 10/05 A3002 RMK A01 T01000049  RH  070%=      5-min Rain = 0
KMC1 081124Z 22004KT 10/05 A3002 RMK A01 T01010049  RH  070%=      5-min Rain = 0
KMC1 081125Z 21004KT 10/05 A3002 RMK A01 T01010049  RH  070%=      5-min Rain = 0
KMC1 081126Z 21005KT 10/05 A3002 RMK A01 T01010049  RH  070%=      5-min Rain = 0
KMC1 081127Z 22003KT 10/05 A3003 RMK A01 T01010050  RH  070%=      5-min Rain = 0
KMC1 081128Z 22004KT 10/05 A3003 RMK A01 T01010050  RH  070%=      5-min Rain = 0
KMC1 081129Z 23006KT 10/05 A3003 RMK A01 T01010049  RH  070%=      5-min Rain = 0
KMC1 081130Z 23004KT 10/05 A3003 RMK A01 T01010049  RH  070%=      5-min Rain = 0
KMC1 081131Z 23004KT 10/05 A3003 RMK A01 T01010049  RH  070%=      5-min Rain = 0
KMC1 081132Z 22004KT 10/05 A3003 RMK A01 T01010048  RH  070%=      5-min Rain = 0
KMC1 081133Z 21005KT 10/05 A3003 RMK A01 T01000048  RH  070%=      5-min Rain = 0
KMC1 081134Z 21003KT 10/05 A3003 RMK A01 T00990048  RH  071%=      5-min Rain = 0
KMC1 081135Z 22003KT 10/05 A3003 RMK A01 T00980048  RH  071%=      5-min Rain = 0
KMC1 081136Z 22005KT 10/05 A3003 RMK A01 T00980048  RH  071%=      5-min Rain = 0
KMC1 081137Z 21005KT 10/05 A3003 RMK A01 T00980048  RH  071%=      5-min Rain = 0
KMC1 081138Z 22003KT 10/05 A3002 RMK A01 T00970048  RH  072%=      5-min Rain = 0
KMC1 081139Z 21003KT 10/05 A3002 RMK A01 T00970048  RH  072%=      5-min Rain = 0
KMC1 081140Z 20003KT 10/05 A3002 RMK A01 T00970048  RH  072%=      5-min Rain = 0
KMC1 081141Z 21003KT 10/05 A3002 RMK A01 T00960048  RH  072%=      5-min Rain = 0
KMC1 081142Z 20003KT 10/05 A3002 RMK A01 T00960048  RH  072%=      5-min Rain = 0
KMC1 081143Z 20004KT 10/05 A3002 RMK A01 T00960048  RH  072%=      5-min Rain = 0
KMC1 081144Z 20004KT 10/05 A3002 RMK A01 T00960048  RH  072%=      5-min Rain = 0
KMC1 081145Z 20004KT 10/05 A3002 RMK A01 T00960048  RH  072%=      5-min Rain = 0
KMC1 081146Z 20004KT 10/05 A3002 RMK A01 T00960048  RH  072%=      5-min Rain = 0
KMC1 081147Z 20004KT 10/05 A3002 RMK A01 T00970049  RH  072%=      5-min Rain = 0
KMC1 081148Z 21004KT 10/05 A3002 RMK A01 T00980049  RH  072%=      5-min Rain = 0
KMC1 081149Z 20005KT 10/05 A3002 RMK A01 T00970049  RH  072%=      5-min Rain = 0
KMC1 081150Z 20005KT 10/05 A3002 RMK A01 T00980049  RH  072%=      5-min Rain = 0
KMC1 081151Z 21005KT 10/05 A3002 RMK A01 T00990050  RH  072%=      5-min Rain = 0
KMC1 081152Z 21005KT 10/05 A3002 RMK A01 T00990050  RH  071%=      5-min Rain = 0
KMC1 081153Z 21005KT 10/05 A3002 RMK A01 T00990050  RH  071%=      5-min Rain = 0
KMC1 081154Z 21005KT 10/05 A3002 RMK A01 T00990050  RH  071%=      5-min Rain = 0
KMC1 081155Z 21006KT 10/05 A3002 RMK A01 T00990050  RH  071%=      5-min Rain = 0
KMC1 081156Z 21004KT 10/05 A3002 RMK A01 T00990050  RH  071%=      5-min Rain = 0
KMC1 081157Z 21005KT 10/05 A3002 RMK A01 T00990049  RH  071%=      5-min Rain = 0
KMC1 081158Z 22004KT 10/05 A3002 RMK A01 T00990050  RH  071%=      5-min Rain = 0
KMC1 081159Z 21005KT 10/05 A3002 RMK A01 T00990050  RH  071%=      5-min Rain = 0
KMC1 081200Z 21004KT 10/05 A3002 RMK A01 T00990050  RH  072%=      5-min Rain = 0
KMC1 081201Z 21004KT 10/05 A3002 RMK A01 T00980049  RH  072%=      5-min Rain = 0
KMC1 081202Z 22004KT 10/05 A3002 RMK A01 T00980050  RH  072%=      5-min Rain = 0
KMC1 081203Z 22004KT 10/05 A3002 RMK A01 T00980049  RH  072%=      5-min Rain = 0
KMC1 081204Z 22003KT 10/05 A3002 RMK A01 T00970049  RH  072%=      5-min Rain = 0
KMC1 081205Z 23003KT 10/05 A3002 RMK A01 T00970049  RH  072%=      5-min Rain = 0
KMC1 081206Z 22003KT 10/05 A3002 RMK A01 T00970049  RH  072%=      5-min Rain = 0
KMC1 081207Z 22003KT 10/05 A3002 RMK A01 T00970049  RH  072%=      5-min Rain = 0
KMC1 081208Z 22003KT 10/05 A3002 RMK A01 T00960049  RH  072%=      5-min Rain = 0
KMC1 081209Z 23003KT 10/05 A3002 RMK A01 T00960049  RH  072%=      5-min Rain = 0
KMC1 081210Z 23003KT 10/05 A3002 RMK A01 T00960049  RH  073%=      5-min Rain = 0
KMC1 081211Z 23003KT 10/05 A3002 RMK A01 T00960049  RH  073%=      5-min Rain = 0
KMC1 081212Z 24003KT 10/05 A3002 RMK A01 T00950049  RH  073%=      5-min Rain = 0
KMC1 081213Z 23003KT 10/05 A3002 RMK A01 T00950048  RH  073%=      5-min Rain = 0
KMC1 081214Z 23003KT 10/05 A3002 RMK A01 T00950048  RH  073%=      5-min Rain = 0
KMC1 081215Z 21004KT 09/05 A3002 RMK A01 T00940047  RH  073%=      5-min Rain = 0
KMC1 081216Z 23004KT 09/05 A3002 RMK A01 T00930048  RH  073%=      5-min Rain = 0
KMC1 081217Z 23003KT 09/05 A3003 RMK A01 T00920047  RH  073%=      5-min Rain = 0
KMC1 081218Z 22004KT 09/05 A3003 RMK A01 T00920047  RH  074%=      5-min Rain = 0
KMC1 081219Z 22004KT 09/05 A3003 RMK A01 T00910047  RH  074%=      5-min Rain = 0
KMC1 081220Z 22004KT 09/05 A3003 RMK A01 T00910048  RH  074%=      5-min Rain = 0
KMC1 081221Z 22005KT 09/05 A3003 RMK A01 T00910048  RH  074%=      5-min Rain = 0
KMC1 081222Z 22005KT 09/05 A3003 RMK A01 T00920048  RH  074%=      5-min Rain = 0
KMC1 081223Z 22004KT 09/05 A3003 RMK A01 T00920048  RH  074%=      5-min Rain = 0
KMC1 081224Z 23005KT 09/05 A3003 RMK A01 T00930049  RH  074%=      5-min Rain = 0
KMC1 081225Z 22004KT 09/05 A3003 RMK A01 T00920048  RH  074%=      5-min Rain = 0
KMC1 081226Z 22005KT 09/05 A3003 RMK A01 T00930049  RH  074%=      5-min Rain = 0
KMC1 081227Z 21005KT 09/05 A3003 RMK A01 T00920049  RH  074%=      5-min Rain = 0
KMC1 081228Z 22005KT 09/05 A3003 RMK A01 T00930049  RH  074%=      5-min Rain = 0
KMC1 081229Z 22006KT 09/05 A3003 RMK A01 T00930049  RH  074%=      5-min Rain = 0
KMC1 081230Z 22006KT 09/05 A3003 RMK A01 T00930049  RH  074%=      5-min Rain = 0
KMC1 081231Z 22006KT 10/05 A3003 RMK A01 T00950050  RH  074%=      5-min Rain = 0
KMC1 081232Z 22006KT 10/05 A3003 RMK A01 T00950050  RH  073%=      5-min Rain = 0
KMC1 081233Z 21006KT 10/05 A3003 RMK A01 T00950050  RH  073%=      5-min Rain = 0
KMC1 081234Z 21008KT 10/05 A3003 RMK A01 T00960051  RH  073%=      5-min Rain = 0
KMC1 081235Z 21007KT 10/05 A3003 RMK A01 T00970052  RH  073%=      5-min Rain = 0
KMC1 081236Z 21006KT 10/05 A3003 RMK A01 T00990052  RH  073%=      5-min Rain = 0
KMC1 081237Z 21006KT 10/05 A3003 RMK A01 T00990051  RH  072%=      5-min Rain = 0
KMC1 081238Z 21006KT 10/05 A3003 RMK A01 T00990052  RH  072%=      5-min Rain = 0
KMC1 081239Z 21006KT 10/05 A3003 RMK A01 T00990052  RH  072%=      5-min Rain = 0
KMC1 081240Z 21006KT 10/05 A3003 RMK A01 T01000052  RH  072%=      5-min Rain = 0
KMC1 081241Z 21005KT 10/05 A3003 RMK A01 T01000052  RH  072%=      5-min Rain = 0
KMC1 081242Z 21007KT 10/05 A3003 RMK A01 T01000052  RH  072%=      5-min Rain = 0
KMC1 081243Z 21006KT 10/05 A3003 RMK A01 T01010052  RH  072%=      5-min Rain = 0
KMC1 081244Z 21007KT 10/05 A3003 RMK A01 T01010053  RH  072%=      5-min Rain = 0
KMC1 081245Z 21006KT 10/05 A3003 RMK A01 T01020053  RH  072%=      5-min Rain = 0
KMC1 081246Z 21006KT 10/05 A3003 RMK A01 T01020053  RH  072%=      5-min Rain = 0
KMC1 081247Z 21005KT 10/05 A3003 RMK A01 T01030054  RH  072%=      5-min Rain = 0
KMC1 081248Z 22006KT 10/05 A3003 RMK A01 T01030053  RH  071%=      5-min Rain = 0
KMC1 081249Z 22005KT 10/05 A3003 RMK A01 T01030054  RH  071%=      5-min Rain = 0
KMC1 081250Z 22006KT 10/05 A3003 RMK A01 T01040054  RH  071%=      5-min Rain = 0
KMC1 081251Z 21006KT 10/05 A3003 RMK A01 T01040054  RH  071%=      5-min Rain = 0
KMC1 081252Z 22005KT 10/05 A3003 RMK A01 T01040054  RH  071%=      5-min Rain = 0
KMC1 081253Z 22005KT 10/05 A3003 RMK A01 T01030054  RH  072%=      5-min Rain = 0
KMC1 081254Z 22005KT 10/05 A3003 RMK A01 T01030054  RH  072%=      5-min Rain = 0
KMC1 081255Z 22005KT 10/05 A3003 RMK A01 T01020054  RH  072%=      5-min Rain = 0
KMC1 081256Z 21005KT 10/05 A3003 RMK A01 T01020054  RH  072%=      5-min Rain = 0
KMC1 081257Z 22006KT 10/06 A3003 RMK A01 T01020055  RH  072%=      5-min Rain = 0
KMC1 081258Z 22005KT 10/06 A3003 RMK A01 T01020055  RH  073%=      5-min Rain = 0
KMC1 081259Z 21007KT 10/05 A3003 RMK A01 T01020054  RH  072%=      5-min Rain = 0
KMC1 081300Z 21005KT 10/06 A3003 RMK A01 T01020055  RH  072%=      5-min Rain = 0
KMC1 081301Z 21006KT 10/06 A3003 RMK A01 T01020055  RH  072%=      5-min Rain = 0
KMC1 081302Z 21007KT 10/06 A3003 RMK A01 T01030056  RH  073%=      5-min Rain = 0
KMC1 081303Z 21007KT 10/06 A3003 RMK A01 T01030056  RH  072%=      5-min Rain = 0
KMC1 081304Z 20007KT 10/06 A3003 RMK A01 T01040056  RH  072%=      5-min Rain = 0
KMC1 081305Z 21007KT 10/06 A3003 RMK A01 T01040056  RH  072%=      5-min Rain = 0
KMC1 081306Z 21007KT 10/06 A3003 RMK A01 T01040056  RH  072%=      5-min Rain = 0
KMC1 081307Z 21006KT 10/06 A3003 RMK A01 T01040056  RH  072%=      5-min Rain = 0
KMC1 081308Z 21007KT 10/06 A3003 RMK A01 T01040056  RH  072%=      5-min Rain = 0
KMC1 081309Z 21007KT 10/06 A3003 RMK A01 T01040057  RH  073%=      5-min Rain = 0
KMC1 081310Z 21007KT 10/06 A3002 RMK A01 T01040057  RH  073%=      5-min Rain = 0
KMC1 081311Z 21006KT 10/06 A3003 RMK A01 T01040057  RH  072%=      5-min Rain = 0
KMC1 081312Z 21007KT 10/06 A3003 RMK A01 T01040057  RH  072%=      5-min Rain = 0
KMC1 081313Z 21007KT 11/06 A3003 RMK A01 T01050058  RH  072%=      5-min Rain = 0
KMC1 081314Z 21008KT 11/06 A3003 RMK A01 T01050058  RH  073%=      5-min Rain = 0
KMC1 081315Z 21007KT 11/06 A3003 RMK A01 T01050058  RH  073%=      5-min Rain = 0
KMC1 081316Z 21007KT 11/06 A3003 RMK A01 T01050058  RH  073%=      5-min Rain = 0
KMC1 081317Z 20006KT 11/06 A3003 RMK A01 T01050058  RH  073%=      5-min Rain = 0
KMC1 081318Z 21008KT 11/06 A3003 RMK A01 T01050058  RH  073%=      5-min Rain = 0
KMC1 081319Z 21007KT 11/06 A3003 RMK A01 T01060059  RH  073%=      5-min Rain = 0
KMC1 081320Z 20006KT 11/06 A3003 RMK A01 T01060059  RH  073%=      5-min Rain = 0
KMC1 081321Z 21008KT 11/06 A3003 RMK A01 T01060059  RH  073%=      5-min Rain = 0
KMC1 081322Z 21007KT 11/06 A3003 RMK A01 T01060059  RH  073%=      5-min Rain = 0
KMC1 081323Z 21007KT 11/06 A3003 RMK A01 T01060059  RH  073%=      5-min Rain = 0
KMC1 081324Z 21006KT 11/06 A3003 RMK A01 T01070060  RH  073%=      5-min Rain = 0
KMC1 081325Z 21007KT 11/06 A3003 RMK A01 T01070060  RH  073%=      5-min Rain = 0
KMC1 081326Z 21008KT 11/06 A3003 RMK A01 T01060060  RH  073%=      5-min Rain = 0
KMC1 081327Z 22007KT 11/06 A3003 RMK A01 T01060060  RH  073%=      5-min Rain = 0
KMC1 081328Z 21007KT 11/06 A3003 RMK A01 T01060060  RH  073%=      5-min Rain = 0
KMC1 081329Z 21007KT 11/06 A3003 RMK A01 T01060060  RH  073%=      5-min Rain = 0
KMC1 081330Z 22006KT 11/06 A3003 RMK A01 T01060061  RH  073%=      5-min Rain = 0
KMC1 081331Z 21007KT 11/06 A3003 RMK A01 T01060061  RH  074%=      5-min Rain = 0
KMC1 081332Z 21006KT 11/06 A3003 RMK A01 T01060061  RH  074%=      5-min Rain = 0
KMC1 081333Z 20007KT 11/06 A3003 RMK A01 T01060061  RH  074%=      5-min Rain = 0
KMC1 081334Z 21006KT 11/06 A3003 RMK A01 T01060061  RH  074%=      5-min Rain = 0
KMC1 081335Z 20007KT 11/06 A3003 RMK A01 T01060061  RH  074%=      5-min Rain = 0
KMC1 081336Z 21006KT 11/06 A3003 RMK A01 T01060061  RH  074%=      5-min Rain = 0
KMC1 081337Z 21008KT 11/06 A3003 RMK A01 T01060061  RH  074%=      5-min Rain = 0
KMC1 081338Z 20007KT 11/06 A3003 RMK A01 T01060062  RH  074%=      5-min Rain = 0
KMC1 081339Z 21006KT 11/06 A3003 RMK A01 T01070062  RH  074%=      5-min Rain = 0
KMC1 081340Z 21006KT 11/06 A3003 RMK A01 T01070062  RH  074%=      5-min Rain = 0
KMC1 081341Z 21007KT 11/06 A3003 RMK A01 T01070063  RH  074%=      5-min Rain = 0
KMC1 081342Z 22007KT 11/06 A3003 RMK A01 T01070063  RH  074%=      5-min Rain = 0
KMC1 081343Z 21007KT 11/06 A3003 RMK A01 T01070063  RH  074%=      5-min Rain = 0
KMC1 081344Z 21006KT 11/06 A3003 RMK A01 T01070063  RH  074%=      5-min Rain = 0
KMC1 081345Z 21007G12KT 11/06 A3003 RMK A01 T01080063  RH  074%=      5-min Rain = 0
KMC1 081346Z 21006KT 11/06 A3003 RMK A01 T01080063  RH  074%=      5-min Rain = 0
KMC1 081347Z 21008KT 11/06 A3003 RMK A01 T01080063  RH  074%=      5-min Rain = 0
KMC1 081348Z 21007KT 11/06 A3003 RMK A01 T01080064  RH  074%=      5-min Rain = 0
KMC1 081349Z 21007KT 11/06 A3003 RMK A01 T01080063  RH  074%=      5-min Rain = 0
KMC1 081350Z 22006KT 11/06 A3003 RMK A01 T01080064  RH  074%=      5-min Rain = 0
KMC1 081351Z 21005KT 11/06 A3003 RMK A01 T01080064  RH  074%=      5-min Rain = 0
KMC1 081352Z 22005KT 11/06 A3003 RMK A01 T01080063  RH  074%=      5-min Rain = 0
KMC1 081353Z 22004KT 11/06 A3003 RMK A01 T01080064  RH  074%=      5-min Rain = 0
KMC1 081354Z 23005KT 11/06 A3003 RMK A01 T01080064  RH  074%=      5-min Rain = 0
KMC1 081355Z 22005KT 11/06 A3003 RMK A01 T01080064  RH  074%=      5-min Rain = 0
KMC1 081356Z 23005KT 11/06 A3003 RMK A01 T01080064  RH  074%=      5-min Rain = 0
KMC1 081357Z 22005KT 11/06 A3003 RMK A01 T01070063  RH  074%=      5-min Rain = 0
KMC1 081358Z 22004KT 11/06 A3003 RMK A01 T01070064  RH  075%=      5-min Rain = 0
KMC1 081359Z 22003KT 11/06 A3003 RMK A01 T01070064  RH  075%=      5-min Rain = 0
KMC1 081400Z 23003KT 11/06 A3003 RMK A01 T01070064  RH  075%=      5-min Rain = 0
KMC1 081401Z 22004KT 11/06 A3003 RMK A01 T01070064  RH  075%=      5-min Rain = 0
KMC1 081402Z 21005KT 11/06 A3003 RMK A01 T01060064  RH  075%=      5-min Rain = 0
KMC1 081403Z 22005KT 11/06 A3003 RMK A01 T01060064  RH  075%=      5-min Rain = 0
KMC1 081404Z 22004KT 11/07 A3003 RMK A01 T01060065  RH  075%=      5-min Rain = 0
KMC1 081405Z 22005KT 11/07 A3003 RMK A01 T01060065  RH  075%=      5-min Rain = 0
KMC1 081406Z 22005KT 11/06 A3003 RMK A01 T01060064  RH  075%=      5-min Rain = 0
KMC1 081407Z 22005KT 11/06 A3003 RMK A01 T01060064  RH  075%=      5-min Rain = 0
KMC1 081408Z 21004KT 11/07 A3003 RMK A01 T01060065  RH  075%=      5-min Rain = 0
KMC1 081409Z 22004KT 11/07 A3003 RMK A01 T01070065  RH  075%=      5-min Rain = 0
KMC1 081410Z 22005KT 11/07 A3003 RMK A01 T01070065  RH  075%=      5-min Rain = 0
KMC1 081411Z 21006KT 11/07 A3003 RMK A01 T01070065  RH  075%=      5-min Rain = 0
KMC1 081412Z 21005KT 11/07 A3003 RMK A01 T01080066  RH  075%=      5-min Rain = 0
KMC1 081413Z 21006KT 11/07 A3003 RMK A01 T01090067  RH  075%=      5-min Rain = 0
KMC1 081414Z 22004KT 11/07 A3003 RMK A01 T01100067  RH  075%=      5-min Rain = 0
KMC1 081415Z 21005KT 11/07 A3003 RMK A01 T01090067  RH  075%=      5-min Rain = 0
KMC1 081416Z 21006KT 11/07 A3003 RMK A01 T01100067  RH  075%=      5-min Rain = 0
KMC1 081417Z 21005KT 11/07 A3003 RMK A01 T01110068  RH  075%=      5-min Rain = 0
KMC1 081418Z 22005KT 11/07 A3003 RMK A01 T01110068  RH  075%=      5-min Rain = 0
KMC1 081419Z 21006KT 11/07 A3003 RMK A01 T01110068  RH  075%=      5-min Rain = 0
KMC1 081420Z 21005KT 11/07 A3003 RMK A01 T01120069  RH  074%=      5-min Rain = 0
KMC1 081421Z 22005KT 11/07 A3003 RMK A01 T01130069  RH  074%=      5-min Rain = 0
KMC1 081422Z 22006KT 11/07 A3003 RMK A01 T01130069  RH  074%=      5-min Rain = 0
KMC1 081423Z 22007KT 11/07 A3003 RMK A01 T01140069  RH  074%=      5-min Rain = 0
KMC1 081424Z 22006KT 12/07 A3003 RMK A01 T01150069  RH  074%=      5-min Rain = 0
KMC1 081425Z 21007KT 12/07 A3003 RMK A01 T01150069  RH  073%=      5-min Rain = 0
KMC1 081426Z 21006KT 12/07 A3003 RMK A01 T01160070  RH  073%=      5-min Rain = 0
KMC1 081427Z 22006KT 12/07 A3003 RMK A01 T01170070  RH  073%=      5-min Rain = 0
KMC1 081428Z 21007KT 12/07 A3003 RMK A01 T01170070  RH  073%=      5-min Rain = 0
KMC1 081429Z 21007KT 12/07 A3003 RMK A01 T01180071  RH  073%=      5-min Rain = 0
KMC1 081430Z 22007KT 12/07 A3003 RMK A01 T01180071  RH  073%=      5-min Rain = 0
KMC1 081431Z 21005KT 12/07 A3003 RMK A01 T01190072  RH  073%=      5-min Rain = 0
KMC1 081432Z 22008KT 12/07 A3003 RMK A01 T01190072  RH  073%=      5-min Rain = 0
KMC1 081433Z 21009KT 12/07 A3003 RMK A01 T01200072  RH  072%=      5-min Rain = 0
KMC1 081434Z 21007KT 12/07 A3003 RMK A01 T01210072  RH  072%=      5-min Rain = 0
KMC1 081435Z 21008KT 12/07 A3003 RMK A01 T01210073  RH  072%=      5-min Rain = 0
KMC1 081436Z 21008G13KT 12/07 A3003 RMK A01 T01220073  RH  072%=      5-min Rain = 0
KMC1 081437Z 21010KT 12/07 A3003 RMK A01 T01230074  RH  072%=      5-min Rain = 0
KMC1 081438Z 21007KT 12/07 A3003 RMK A01 T01230074  RH  072%=      5-min Rain = 0
KMC1 081439Z 21007KT 12/07 A3003 RMK A01 T01240074  RH  072%=      5-min Rain = 0
KMC1 081440Z 21008KT 12/08 A3004 RMK A01 T01240075  RH  072%=      5-min Rain = 0
KMC1 081441Z 20010KT 13/08 A3004 RMK A01 T01250075  RH  072%=      5-min Rain = 0
KMC1 081442Z 20008KT 13/08 A3004 RMK A01 T01250075  RH  071%=      5-min Rain = 0
KMC1 081443Z 21009KT 13/08 A3004 RMK A01 T01260076  RH  071%=      5-min Rain = 0
KMC1 081444Z 20011KT 13/08 A3003 RMK A01 T01270076  RH  071%=      5-min Rain = 0
KMC1 081445Z 20009G14KT 13/08 A3003 RMK A01 T01270076  RH  071%=      5-min Rain = 0
KMC1 081446Z 21008KT 13/08 A3003 RMK A01 T01280077  RH  071%=      5-min Rain = 0
KMC1 081447Z 21010KT 13/08 A3003 RMK A01 T01280077  RH  071%=      5-min Rain = 0
KMC1 081448Z 21008G14KT 13/08 A3003 RMK A01 T01290078  RH  071%=      5-min Rain = 0
KMC1 081449Z 21010KT 13/08 A3003 RMK A01 T01300078  RH  071%=      5-min Rain = 0
KMC1 081450Z 20010G15KT 13/08 A3004 RMK A01 T01300078  RH  071%=      5-min Rain = 0
KMC1 081451Z 21009KT 13/08 A3003 RMK A01 T01310078  RH  071%=      5-min Rain = 0
KMC1 081452Z 21013G18KT 13/08 A3004 RMK A01 T01320079  RH  070%=      5-min Rain = 0
KMC1 081453Z 20012KT 13/08 A3003 RMK A01 T01320079  RH  070%=      5-min Rain = 0
KMC1 081454Z 20012KT 13/08 A3003 RMK A01 T01320079  RH  070%=      5-min Rain = 0
KMC1 081455Z 20013KT 13/08 A3003 RMK A01 T01330079  RH  070%=      5-min Rain = 0
KMC1 081456Z 20012G17KT 13/08 A3003 RMK A01 T01330079  RH  070%=      5-min Rain = 0
KMC1 081457Z 20013G18KT 13/08 A3003 RMK A01 T01330080  RH  070%=      5-min Rain = 0
KMC1 081458Z 21012KT 13/08 A3003 RMK A01 T01340081  RH  070%=      5-min Rain = 0
KMC1 081459Z 20010G15KT 13/08 A3003 RMK A01 T01340081  RH  070%=      5-min Rain = 0
KMC1 081500Z 20011KT 14/08 A3003 RMK A01 T01350081  RH  070%=      5-min Rain = 0
KMC1 081501Z 20008KT 14/08 A3003 RMK A01 T01360081  RH  070%=      5-min Rain = 0
KMC1 081502Z 22012G17KT 14/08 A3003 RMK A01 T01360083  RH  070%=      5-min Rain = 0
KMC1 081503Z 21011KT 14/08 A3003 RMK A01 T01370083  RH  069%=      5-min Rain = 0
KMC1 081504Z 21012G19KT 14/08 A3003 RMK A01 T01380083  RH  069%=      5-min Rain = 0
KMC1 081505Z 20008KT 14/08 A3003 RMK A01 T01380083  RH  070%=      5-min Rain = 0
KMC1 081506Z 20009KT 14/08 A3003 RMK A01 T01390084  RH  069%=      5-min Rain = 0
KMC1 081507Z 20009KT 14/08 A3003 RMK A01 T01400084  RH  069%=      5-min Rain = 0
KMC1 081508Z 21011KT 14/08 A3003 RMK A01 T01400084  RH  069%=      5-min Rain = 0
KMC1 081509Z 20011KT 14/09 A3003 RMK A01 T01410085  RH  069%=      5-min Rain = 0
KMC1 081510Z 20011KT 14/09 A3003 RMK A01 T01420085  RH  069%=      5-min Rain = 0
KMC1 081511Z 20009KT 14/09 A3003 RMK A01 T01420085  RH  068%=      5-min Rain = 0
KMC1 081512Z 20008KT 14/09 A3003 RMK A01 T01430086  RH  069%=      5-min Rain = 0
KMC1 081513Z 21013KT 14/09 A3003 RMK A01 T01430086  RH  068%=      5-min Rain = 0
KMC1 081514Z 20011KT 14/09 A3003 RMK A01 T01430086  RH  068%=      5-min Rain = 0
KMC1 081515Z 20008KT 14/09 A3003 RMK A01 T01430086  RH  068%=      5-min Rain = 0
KMC1 081516Z 20010KT 14/09 A3003 RMK A01 T01430086  RH  068%=      5-min Rain = 0
KMC1 081517Z 20012G17KT 14/09 A3003 RMK A01 T01440087  RH  068%=      5-min Rain = 0
KMC1 081518Z 20011KT 14/09 A3003 RMK A01 T01440087  RH  068%=      5-min Rain = 0
KMC1 081519Z 20010KT 14/09 A3003 RMK A01 T01440087  RH  068%=      5-min Rain = 0
KMC1 081520Z 21011KT 15/09 A3003 RMK A01 T01450087  RH  068%=      5-min Rain = 0
KMC1 081521Z 20009KT 15/09 A3003 RMK A01 T01450088  RH  068%=      5-min Rain = 0
KMC1 081522Z 21010KT 15/09 A3003 RMK A01 T01460088  RH  068%=      5-min Rain = 0
KMC1 081523Z 21010G15KT 15/09 A3003 RMK A01 T01470089  RH  068%=      5-min Rain = 0
KMC1 081524Z 20010G15KT 15/09 A3003 RMK A01 T01470089  RH  068%=      5-min Rain = 0
KMC1 081525Z 20011KT 15/09 A3003 RMK A01 T01470089  RH  068%=      5-min Rain = 0
KMC1 081526Z 21008KT 15/09 A3003 RMK A01 T01480089  RH  068%=      5-min Rain = 0
KMC1 081527Z 21005KT 15/09 A3003 RMK A01 T01480090  RH  068%=      5-min Rain = 0
KMC1 081528Z 23008KT 15/09 A3003 RMK A01 T01490091  RH  068%=      5-min Rain = 0
KMC1 081529Z 22008KT 15/09 A3003 RMK A01 T01510091  RH  068%=      5-min Rain = 0
KMC1 081530Z 21009KT 15/09 A3003 RMK A01 T01510091  RH  067%=      5-min Rain = 0
KMC1 081531Z 21008G13KT 15/09 A3003 RMK A01 T01520092  RH  067%=      5-min Rain = 0
KMC1 081532Z 20008KT 15/09 A3003 RMK A01 T01530092  RH  067%=      5-min Rain = 0
KMC1 081533Z 21007KT 15/09 A3003 RMK A01 T01540092  RH  067%=      5-min Rain = 0
KMC1 081534Z 21008KT 16/09 A3003 RMK A01 T01550093  RH  067%=      5-min Rain = 0
KMC1 081535Z 21012KT 16/09 A3003 RMK A01 T01560093  RH  066%=      5-min Rain = 0
KMC1 081536Z 21013G19KT 16/09 A3003 RMK A01 T01560093  RH  066%=      5-min Rain = 0
KMC1 081537Z 21012KT 16/09 A3003 RMK A01 T01550092  RH  066%=      5-min Rain = 0
KMC1 081538Z 21011KT 16/09 A3003 RMK A01 T01550092  RH  066%=      5-min Rain = 0
KMC1 081539Z 20007KT 16/09 A3003 RMK A01 T01550094  RH  067%=      5-min Rain = 0
KMC1 081540Z 19011KT 16/09 A3003 RMK A01 T01560094  RH  066%=      5-min Rain = 0
KMC1 081541Z 21007KT 16/09 A3004 RMK A01 T01570094  RH  066%=      5-min Rain = 0
KMC1 081542Z 22011G17KT 16/09 A3004 RMK A01 T01580094  RH  066%=      5-min Rain = 0
KMC1 081543Z 21011G16KT 16/09 A3004 RMK A01 T01580094  RH  066%=      5-min Rain = 0
KMC1 081544Z 21007KT 16/10 A3004 RMK A01 T01580095  RH  066%=      5-min Rain = 0
KMC1 081545Z 20011KT 16/10 A3004 RMK A01 T01590095  RH  066%=      5-min Rain = 0
KMC1 081546Z 20012KT 16/09 A3004 RMK A01 T01590094  RH  065%=      5-min Rain = 0
KMC1 081547Z 21010KT 16/10 A3004 RMK A01 T01590095  RH  066%=      5-min Rain = 0
KMC1 081548Z 21011KT 16/10 A3004 RMK A01 T01600095  RH  066%=      5-min Rain = 0
KMC1 081549Z 20012KT 16/10 A3004 RMK A01 T01600095  RH  065%=      5-min Rain = 0
KMC1 081550Z 20011KT 16/10 A3004 RMK A01 T01590095  RH  065%=      5-min Rain = 0
KMC1 081551Z 20011G17KT 16/10 A3004 RMK A01 T01600095  RH  065%=      5-min Rain = 0
KMC1 081552Z 20012KT 16/10 A3003 RMK A01 T01600095  RH  065%=      5-min Rain = 0
KMC1 081553Z 20013KT 16/10 A3004 RMK A01 T01600095  RH  065%=      5-min Rain = 0
KMC1 081554Z 21010KT 16/10 A3004 RMK A01 T01610095  RH  065%=      5-min Rain = 0
KMC1 081555Z 21013KT 16/10 A3004 RMK A01 T01610096  RH  065%=      5-min Rain = 0
KMC1 081556Z 20014KT 16/10 A3004 RMK A01 T01610095  RH  065%=      5-min Rain = 0
KMC1 081557Z 20013G18KT 16/10 A3004 RMK A01 T01620096  RH  065%=      5-min Rain = 0
KMC1 081558Z 21012KT 16/10 A3004 RMK A01 T01630096  RH  065%=      5-min Rain = 0
KMC1 081559Z 19010KT 16/10 A3004 RMK A01 T01630096  RH  064%=      5-min Rain = 0
KMC1 081600Z 21010KT 16/10 A3004 RMK A01 T01630097  RH  065%=      5-min Rain = 0
KMC1 081601Z 20009KT 16/10 A3004 RMK A01 T01640096  RH  064%=      5-min Rain = 0
KMC1 081602Z 21007KT 17/10 A3004 RMK A01 T01650098  RH  064%=      5-min Rain = 0
KMC1 081603Z 21010KT 17/10 A3004 RMK A01 T01680098  RH  064%=      5-min Rain = 0
KMC1 081604Z 21010KT 17/10 A3004 RMK A01 T01680097  RH  063%=      5-min Rain = 0
KMC1 081605Z 22007KT 17/10 A3004 RMK A01 T01670098  RH  064%=      5-min Rain = 0
KMC1 081606Z 21008G13KT 17/10 A3004 RMK A01 T01700100  RH  063%=      5-min Rain = 0
KMC1 081607Z 21010G15KT 17/10 A3004 RMK A01 T01720099  RH  062%=      5-min Rain = 0
KMC1 081608Z 20010KT 17/10 A3004 RMK A01 T01720099  RH  062%=      5-min Rain = 0
KMC1 081609Z 21007KT 17/10 A3004 RMK A01 T01730100  RH  062%=      5-min Rain = 0
KMC1 081610Z 20006G11KT 17/10 A3004 RMK A01 T01740101  RH  062%=      5-min Rain = 0
KMC1 081611Z 21011KT 18/10 A3004 RMK A01 T01770101  RH  061%=      5-min Rain = 0
KMC1 081612Z 21011KT 18/10 A3003 RMK A01 T01760099  RH  061%=      5-min Rain = 0
KMC1 081613Z 21012G17KT 18/10 A3004 RMK A01 T01750099  RH  061%=      5-min Rain = 0
KMC1 081614Z 21013G18KT 18/10 A3004 RMK A01 T01750099  RH  061%=      5-min Rain = 0
KMC1 081615Z 21013KT 17/10 A3004 RMK A01 T01740098  RH  061%=      5-min Rain = 0
KMC1 081616Z 20012G17KT 17/10 A3004 RMK A01 T01730098  RH  061%=      5-min Rain = 0
KMC1 081617Z 20010G15KT 17/10 A3004 RMK A01 T01730098  RH  061%=      5-min Rain = 0
KMC1 081618Z 19011KT 17/10 A3004 RMK A01 T01720098  RH  062%=      5-min Rain = 0
KMC1 081619Z 21008KT 17/10 A3004 RMK A01 T01720098  RH  062%=      5-min Rain = 0
KMC1 081620Z 20013KT 17/10 A3004 RMK A01 T01720098  RH  062%=      5-min Rain = 0
KMC1 081621Z 20013KT 17/10 A3004 RMK A01 T01720098  RH  062%=      5-min Rain = 0
KMC1 081622Z 20011KT 17/10 A3003 RMK A01 T01720098  RH  062%=      5-min Rain = 0
KMC1 081623Z 19011G16KT 17/10 A3003 RMK A01 T01720098  RH  062%=      5-min Rain = 0
KMC1 081624Z 21012G17KT 17/10 A3003 RMK A01 T01720098  RH  062%=      5-min Rain = 0
KMC1 081625Z 20012G17KT 17/10 A3003 RMK A01 T01730099  RH  062%=      5-min Rain = 0
KMC1 081626Z 20009KT 17/10 A3003 RMK A01 T01730099  RH  062%=      5-min Rain = 0
KMC1 081627Z 21012G18KT 17/10 A3003 RMK A01 T01740099  RH  061%=      5-min Rain = 0
KMC1 081628Z 20013KT 18/10 A3003 RMK A01 T01750099  RH  061%=      5-min Rain = 0
KMC1 081629Z 20010KT 18/10 A3003 RMK A01 T01750099  RH  061%=      5-min Rain = 0
KMC1 081630Z 18011G17KT 18/10 A3003 RMK A01 T01750099  RH  061%=      5-min Rain = 0
KMC1 081631Z 19011KT 18/10 A3003 RMK A01 T01760100  RH  061%=      5-min Rain = 0
KMC1 081632Z 19010G15KT 18/10 A3003 RMK A01 T01770100  RH  060%=      5-min Rain = 0
KMC1 081633Z 19008KT 18/10 A3003 RMK A01 T01780100  RH  060%=      5-min Rain = 0
KMC1 081634Z 19008G15KT 18/10 A3003 RMK A01 T01790101  RH  060%=      5-min Rain = 0
KMC1 081635Z 18012G18KT 18/10 A3003 RMK A01 T01800100  RH  059%=      5-min Rain = 0
KMC1 081636Z 19009KT 18/10 A3003 RMK A01 T01800101  RH  060%=      5-min Rain = 0
KMC1 081637Z 19007KT 18/10 A3003 RMK A01 T01800101  RH  060%=      5-min Rain = 0
KMC1 081638Z 19007KT 18/10 A3003 RMK A01 T01820102  RH  060%=      5-min Rain = 0
KMC1 081639Z 19008G13KT 18/10 A3003 RMK A01 T01830102  RH  059%=      5-min Rain = 0
KMC1 081640Z 20009KT 18/10 A3002 RMK A01 T01830103  RH  059%=      5-min Rain = 0
KMC1 081641Z 20007KT 18/10 A3002 RMK A01 T01840102  RH  059%=      5-min Rain = 0
KMC1 081642Z 19006KT 18/10 A3002 RMK A01 T01840103  RH  059%=      5-min Rain = 0
KMC1 081643Z 19009G14KT 18/10 A3002 RMK A01 T01840103  RH  059%=      5-min Rain = 0
KMC1 081644Z 19009KT 19/10 A3002 RMK A01 T01850103  RH  059%=      5-min Rain = 0
KMC1 081645Z 20008KT 19/10 A3003 RMK A01 T01850103  RH  059%=      5-min Rain = 0
KMC1 081646Z 21009KT 19/10 A3003 RMK A01 T01860103  RH  059%=      5-min Rain = 0
KMC1 081647Z 20012G17KT 19/10 A3003 RMK A01 T01860102  RH  058%=      5-min Rain = 0
KMC1 081648Z 21009G14KT 19/10 A3003 RMK A01 T01860102  RH  058%=      5-min Rain = 0
KMC1 081649Z 22013KT 19/10 A3003 RMK A01 T01850101  RH  058%=      5-min Rain = 0
KMC1 081650Z 20009KT 18/10 A3003 RMK A01 T01830102  RH  059%=      5-min Rain = 0
KMC1 081651Z 20009KT 18/10 A3003 RMK A01 T01830102  RH  059%=      5-min Rain = 0
KMC1 081652Z 21012KT 18/10 A3003 RMK A01 T01830102  RH  059%=      5-min Rain = 0
KMC1 081653Z 20010G15KT 18/10 A3003 RMK A01 T01840102  RH  059%=      5-min Rain = 0
KMC1 081654Z 19008KT 19/10 A3002 RMK A01 T01860103  RH  058%=      5-min Rain = 0
KMC1 081655Z 21008KT 19/10 A3002 RMK A01 T01880104  RH  058%=      5-min Rain = 0
KMC1 081656Z 19008G13KT 19/10 A3002 RMK A01 T01890104  RH  058%=      5-min Rain = 0
KMC1 081657Z 19009G14KT 19/10 A3002 RMK A01 T01910104  RH  057%=      5-min Rain = 0
KMC1 081658Z 20010KT 19/10 A3002 RMK A01 T01920104  RH  057%=      5-min Rain = 0
KMC1 081659Z 21008KT 19/10 A3002 RMK A01 T01920104  RH  057%=      5-min Rain = 0
KMC1 081700Z 21012G17KT 19/10 A3002 RMK A01 T01920104  RH  057%=      5-min Rain = 0
KMC1 081701Z 20011KT 19/10 A3002 RMK A01 T01910104  RH  057%=      5-min Rain = 0
KMC1 081702Z 20009KT 19/10 A3002 RMK A01 T01900104  RH  057%=      5-min Rain = 0
KMC1 081703Z 18013KT 19/10 A3002 RMK A01 T01900103  RH  057%=      5-min Rain = 0
KMC1 081704Z 19010G15KT 19/10 A3002 RMK A01 T01890102  RH  057%=      5-min Rain = 0
KMC1 081705Z 19011KT 19/10 A3002 RMK A01 T01880102  RH  058%=      5-min Rain = 0
KMC1 081706Z 20012KT 19/10 A3002 RMK A01 T01880103  RH  058%=      5-min Rain = 0
KMC1 081707Z 19010KT 19/10 A3002 RMK A01 T01890103  RH  057%=      5-min Rain = 0
KMC1 081708Z 20010G15KT 19/10 A3002 RMK A01 T01890103  RH  058%=      5-min Rain = 0
KMC1 081709Z 19009KT 19/10 A3002 RMK A01 T01890104  RH  058%=      5-min Rain = 0
KMC1 081710Z 20006KT 19/11 A3002 RMK A01 T01910106  RH  058%=      5-min Rain = 0
KMC1 081711Z 21008G14KT 19/11 A3002 RMK A01 T01940108  RH  058%=      5-min Rain = 0
KMC1 081712Z 21009KT 20/11 A3001 RMK A01 T01960107  RH  056%=      5-min Rain = 0
KMC1 081713Z 22012G17KT 20/11 A3001 RMK A01 T01960106  RH  056%=      5-min Rain = 0
KMC1 081714Z 21011KT 20/11 A3001 RMK A01 T01960106  RH  056%=      5-min Rain = 0
KMC1 081715Z 22010KT 20/11 A3001 RMK A01 T01950106  RH  056%=      5-min Rain = 0
KMC1 081716Z 19009KT 20/11 A3002 RMK A01 T01960107  RH  056%=      5-min Rain = 0
KMC1 081717Z 18010KT 20/11 A3001 RMK A01 T01960107  RH  056%=      5-min Rain = 0
KMC1 081718Z 19009G14KT 20/11 A3001 RMK A01 T01960107  RH  056%=      5-min Rain = 0
KMC1 081719Z 19010KT 20/11 A3001 RMK A01 T01960107  RH  056%=      5-min Rain = 0
KMC1 081720Z 19010KT 20/11 A3001 RMK A01 T01960107  RH  056%=      5-min Rain = 0
KMC1 081721Z 19009KT 20/11 A3001 RMK A01 T01950107  RH  057%=      5-min Rain = 0
KMC1 081722Z 19012KT 20/11 A3001 RMK A01 T01950107  RH  056%=      5-min Rain = 0
KMC1 081723Z 19010KT 20/11 A3001 RMK A01 T01960106  RH  056%=      5-min Rain = 0
KMC1 081724Z 19007KT 20/11 A3001 RMK A01 T01960107  RH  057%=      5-min Rain = 0
KMC1 081725Z 20011KT 20/11 A3001 RMK A01 T01980109  RH  056%=      5-min Rain = 0
KMC1 081726Z 18013KT 20/11 A3001 RMK A01 T01980107  RH  056%=      5-min Rain = 0
KMC1 081727Z 19010KT 20/11 A3001 RMK A01 T01970108  RH  056%=      5-min Rain = 0
KMC1 081728Z 19009KT 20/11 A3001 RMK A01 T01970108  RH  056%=      5-min Rain = 0
KMC1 081729Z 20008KT 20/11 A3001 RMK A01 T01960108  RH  057%=      5-min Rain = 0
KMC1 081730Z 20008KT 20/11 A3001 RMK A01 T01970110  RH  057%=      5-min Rain = 0
KMC1 081731Z 21009KT 20/11 A30 RMK A01 T02000110  RH  056%=      5-min Rain = 0
KMC1 081732Z 19010KT 20/11 A30 RMK A01 T02000110  RH  056%=      5-min Rain = 0
KMC1 081733Z 20012KT 20/11 A30 RMK A01 T02010107  RH  055%=      5-min Rain = 0
KMC1 081734Z 20013KT 20/10 A30 RMK A01 T02010104  RH  054%=      5-min Rain = 0
KMC1 081735Z 21012KT 20/11 A30 RMK A01 T02000105  RH  054%=      5-min Rain = 0
KMC1 081736Z 21010KT 20/11 A30 RMK A01 T02000106  RH  055%=      5-min Rain = 0
KMC1 081737Z 22012KT 20/11 A30 RMK A01 T02010106  RH  054%=      5-min Rain = 0
KMC1 081738Z 21009KT 20/11 A30 RMK A01 T02010106  RH  054%=      5-min Rain = 0
KMC1 081739Z 21008KT 20/11 A30 RMK A01 T02010107  RH  055%=      5-min Rain = 0
KMC1 081740Z 22011KT 20/11 A30 RMK A01 T02010107  RH  054%=      5-min Rain = 0
KMC1 081741Z 22013KT 20/11 A30 RMK A01 T02010106  RH  054%=      5-min Rain = 0
KMC1 081742Z 21011KT 20/11 A30 RMK A01 T01990105  RH  055%=      5-min Rain = 0
KMC1 081743Z 21010KT 20/11 A30 RMK A01 T01990106  RH  055%=      5-min Rain = 0
KMC1 081744Z 21009KT 20/11 A30 RMK A01 T01980106  RH  055%=      5-min Rain = 0
KMC1 081745Z 20008G13KT 20/11 A30 RMK A01 T01980107  RH  056%=      5-min Rain = 0
KMC1 081746Z 20011KT 20/11 A30 RMK A01 T01970107  RH  056%=      5-min Rain = 0
KMC1 081747Z 18011KT 20/11 A30 RMK A01 T01970107  RH  056%=      5-min Rain = 0
KMC1 081748Z 18009G14KT 20/11 A30 RMK A01 T01970106  RH  056%=      5-min Rain = 0
KMC1 081749Z 19010KT 20/11 A30 RMK A01 T01960106  RH  056%=      5-min Rain = 0
KMC1 081750Z 19009KT 20/11 A30 RMK A01 T01970106  RH  056%=      5-min Rain = 0
KMC1 081751Z 20011KT 20/11 A30 RMK A01 T01970106  RH  056%=      5-min Rain = 0
KMC1 081752Z 20010KT 20/11 A30 RMK A01 T01960107  RH  056%=      5-min Rain = 0
KMC1 081753Z 21010KT 20/11 A30 RMK A01 T01960107  RH  057%=      5-min Rain = 0
KMC1 081754Z 21010KT 20/11 A30 RMK A01 T01960107  RH  056%=      5-min Rain = 0
KMC1 081755Z 20010G15KT 20/11 A30 RMK A01 T01970107  RH  056%=      5-min Rain = 0
KMC1 081756Z 20011KT 20/11 A30 RMK A01 T01980107  RH  056%=      5-min Rain = 0
KMC1 081757Z 21010KT 20/11 A30 RMK A01 T02000108  RH  056%=      5-min Rain = 0
KMC1 081758Z 21008KT 20/11 A30 RMK A01 T02010108  RH  055%=      5-min Rain = 0
KMC1 081759Z 19009KT 20/11 A30 RMK A01 T02020109  RH  055%=      5-min Rain = 0
KMC1 081800Z 19009KT 20/11 A30 RMK A01 T02030108  RH  054%=      5-min Rain = 0
KMC1 081801Z 20008G14KT 20/11 A30 RMK A01 T02040108  RH  054%=      5-min Rain = 0
KMC1 081802Z 20011KT 20/11 A30 RMK A01 T02040109  RH  054%=      5-min Rain = 0
KMC1 081803Z 19007G12KT 20/11 A2999 RMK A01 T02020108  RH  055%=      5-min Rain = 0
KMC1 081804Z 19009KT 20/11 A2999 RMK A01 T02020110  RH  055%=      5-min Rain = 0
KMC1 081805Z 20010KT 20/11 A2999 RMK A01 T02030108  RH  055%=      5-min Rain = 0
KMC1 081806Z 20009KT 20/11 A2999 RMK A01 T02030108  RH  054%=      5-min Rain = 0
KMC1 081807Z 20007KT 20/11 A2999 RMK A01 T02030109  RH  054%=      5-min Rain = 0
KMC1 081808Z 19008KT 21/11 A2999 RMK A01 T02050110  RH  054%=      5-min Rain = 0
KMC1 081809Z 19010G16KT 21/11 A2999 RMK A01 T02070109  RH  053%=      5-min Rain = 0
KMC1 081810Z 19011KT 21/11 A2999 RMK A01 T02070107  RH  053%=      5-min Rain = 0
KMC1 081811Z 20009KT 21/11 A2999 RMK A01 T02060107  RH  053%=      5-min Rain = 0
KMC1 081812Z 20010KT 21/11 A2999 RMK A01 T02060107  RH  053%=      5-min Rain = 0
KMC1 081813Z 20009G14KT 21/11 A2999 RMK A01 T02050107  RH  053%=      5-min Rain = 0
KMC1 081814Z 21009KT 21/11 A2999 RMK A01 T02060108  RH  053%=      5-min Rain = 0
KMC1 081815Z 20008KT 21/11 A2999 RMK A01 T02070108  RH  053%=      5-min Rain = 0
KMC1 081816Z 20009KT 21/11 A2998 RMK A01 T02060108  RH  053%=      5-min Rain = 0
KMC1 081817Z 19008G13KT 21/11 A2998 RMK A01 T02060108  RH  053%=      5-min Rain = 0
KMC1 081818Z 18009KT 21/11 A2998 RMK A01 T02070108  RH  053%=      5-min Rain = 0
KMC1 081819Z 19006KT 21/11 A2998 RMK A01 T02090108  RH  053%=      5-min Rain = 0
KMC1 081820Z 19009KT 21/11 A2998 RMK A01 T02100108  RH  052%=      5-min Rain = 0
KMC1 081821Z 20009KT 21/11 A2998 RMK A01 T02100107  RH  052%=      5-min Rain = 0
KMC1 081822Z 20009KT 21/11 A2998 RMK A01 T02090108  RH  052%=      5-min Rain = 0
KMC1 081823Z 19009KT 21/11 A2998 RMK A01 T02090106  RH  052%=      5-min Rain = 0
KMC1 081824Z 19006KT 21/11 A2998 RMK A01 T02080108  RH  052%=      5-min Rain = 0
KMC1 081825Z 22006KT 21/11 A2998 RMK A01 T02090108  RH  052%=      5-min Rain = 0
KMC1 081826Z 21007KT 21/11 A2998 RMK A01 T02090109  RH  052%=      5-min Rain = 0
KMC1 081827Z 21007G13KT 21/11 A2998 RMK A01 T02100109  RH  052%=      5-min Rain = 0
KMC1 081828Z 21012KT 21/11 A2998 RMK A01 T02100107  RH  052%=      5-min Rain = 0
KMC1 081829Z 21008KT 21/11 A2998 RMK A01 T02100105  RH  051%=      5-min Rain = 0
KMC1 081830Z 20011KT 21/10 A2997 RMK A01 T02090104  RH  051%=      5-min Rain = 0
KMC1 081831Z 21011G17KT 21/11 A2997 RMK A01 T02090105  RH  051%=      5-min Rain = 0
KMC1 081832Z 20011KT 21/11 A2997 RMK A01 T02080105  RH  051%=      5-min Rain = 0
KMC1 081833Z 21010KT 21/11 A2997 RMK A01 T02080105  RH  052%=      5-min Rain = 0
KMC1 081834Z 20010KT 21/11 A2997 RMK A01 T02080105  RH  052%=      5-min Rain = 0
KMC1 081835Z 21009KT 21/11 A2997 RMK A01 T02080106  RH  052%=      5-min Rain = 0
KMC1 081836Z 21009KT 21/11 A2997 RMK A01 T02080107  RH  052%=      5-min Rain = 0
KMC1 081837Z 21007KT 21/11 A2997 RMK A01 T02090107  RH  052%=      5-min Rain = 0
KMC1 081838Z 21008KT 21/11 A2997 RMK A01 T02100108  RH  052%=      5-min Rain = 0
KMC1 081839Z 21009KT 21/11 A2997 RMK A01 T02110107  RH  051%=      5-min Rain = 0
KMC1 081840Z 21007KT 21/11 A2997 RMK A01 T02120107  RH  051%=      5-min Rain = 0
KMC1 081841Z 20007KT 21/11 A2997 RMK A01 T02120107  RH  051%=      5-min Rain = 0
KMC1 081842Z 21010KT 21/11 A2997 RMK A01 T02120108  RH  051%=      5-min Rain = 0
KMC1 081843Z 22007KT 21/11 A2997 RMK A01 T02130107  RH  051%=      5-min Rain = 0
KMC1 081844Z 21009KT 21/11 A2997 RMK A01 T02140108  RH  051%=      5-min Rain = 0
KMC1 081845Z 21008KT 22/11 A2997 RMK A01 T02150108  RH  051%=      5-min Rain = 0
KMC1 081846Z 19009KT 22/11 A2997 RMK A01 T02160108  RH  050%=      5-min Rain = 0
KMC1 081847Z 20009G15KT 22/11 A2996 RMK A01 T02180108  RH  050%=      5-min Rain = 0
KMC1 081848Z 19010KT 22/11 A2996 RMK A01 T02190107  RH  049%=      5-min Rain = 0
KMC1 081849Z 22012KT 22/11 A2997 RMK A01 T02190107  RH  049%=      5-min Rain = 0
KMC1 081850Z 22007KT 22/11 A2997 RMK A01 T02200106  RH  048%=      5-min Rain = 0
KMC1 081851Z 21010KT 22/11 A2997 RMK A01 T02200107  RH  049%=      5-min Rain = 0
KMC1 081852Z 21010G15KT 22/11 A2997 RMK A01 T02210105  RH  048%=      5-min Rain = 0
KMC1 081853Z 21011KT 22/11 A2996 RMK A01 T02210105  RH  048%=      5-min Rain = 0
KMC1 081854Z 20010KT 22/11 A2996 RMK A01 T02210107  RH  048%=      5-min Rain = 0
KMC1 081855Z 20008KT 22/11 A2996 RMK A01 T02230108  RH  048%=      5-min Rain = 0
KMC1 081856Z 21009G16KT 22/11 A2996 RMK A01 T02230107  RH  048%=      5-min Rain = 0
KMC1 081857Z 20014KT 22/11 A2996 RMK A01 T02230106  RH  047%=      5-min Rain = 0
KMC1 081858Z 20010KT 22/10 A2996 RMK A01 T02190104  RH  048%=      5-min Rain = 0
KMC1 081859Z 21012KT 22/11 A2996 RMK A01 T02180105  RH  049%=      5-min Rain = 0
KMC1 081900Z 21012KT 22/11 A2996 RMK A01 T02170105  RH  049%=      5-min Rain = 0
KMC1 081901Z 20010KT 22/10 A2996 RMK A01 T02160104  RH  049%=      5-min Rain = 0
KMC1 081902Z 21011KT 22/10 A2996 RMK A01 T02150104  RH  049%=      5-min Rain = 0
KMC1 081903Z 20010KT 22/10 A2996 RMK A01 T02150104  RH  049%=      5-min Rain = 0
KMC1 081904Z 20010KT 22/10 A2996 RMK A01 T02170104  RH  048%=      5-min Rain = 0
KMC1 081905Z 19011G16KT 22/10 A2996 RMK A01 T02190104  RH  048%=      5-min Rain = 0
KMC1 081906Z 19012KT 22/10 A2995 RMK A01 T02200103  RH  047%=      5-min Rain = 0
KMC1 081907Z 20008G13KT 22/11 A2995 RMK A01 T02200105  RH  048%=      5-min Rain = 0
KMC1 081908Z 21011KT 22/11 A2995 RMK A01 T02230106  RH  047%=      5-min Rain = 0
KMC1 081909Z 19008KT 22/11 A2995 RMK A01 T02230106  RH  047%=      5-min Rain = 0
KMC1 081910Z 20007KT 22/11 A2995 RMK A01 T02240107  RH  047%=      5-min Rain = 0
KMC1 081911Z 21008KT 23/11 A2995 RMK A01 T02250106  RH  047%=      5-min Rain = 0
KMC1 081912Z 20008G13KT 23/11 A2995 RMK A01 T02260107  RH  047%=      5-min Rain = 0
KMC1 081913Z 21009KT 23/11 A2995 RMK A01 T02270106  RH  046%=      5-min Rain = 0
KMC1 081914Z 20008KT 23/11 A2995 RMK A01 T02270105  RH  046%=      5-min Rain = 0
KMC1 081915Z 20007KT 23/11 A2995 RMK A01 T02270106  RH  046%=      5-min Rain = 0
KMC1 081916Z 20012G18KT 23/11 A2995 RMK A01 T02280105  RH  046%=      5-min Rain = 0
KMC1 081917Z 19012KT 23/10 A2995 RMK A01 T02260103  RH  046%=      5-min Rain = 0
KMC1 081918Z 21010KT 23/10 A2995 RMK A01 T02250103  RH  046%=      5-min Rain = 0
KMC1 081919Z 21013KT 23/10 A2995 RMK A01 T02260102  RH  045%=      5-min Rain = 0
KMC1 081920Z 21010KT 23/10 A2994 RMK A01 T02250103  RH  046%=      5-min Rain = 0
KMC1 081921Z 19008KT 23/10 A2994 RMK A01 T02250104  RH  046%=      5-min Rain = 0
KMC1 081922Z 20011KT 23/11 A2994 RMK A01 T02290106  RH  046%=      5-min Rain = 0
KMC1 081923Z 19011KT 23/11 A2994 RMK A01 T02300105  RH  045%=      5-min Rain = 0
KMC1 081924Z 19011KT 23/11 A2994 RMK A01 T02310106  RH  045%=      5-min Rain = 0
KMC1 081925Z 19009KT 23/11 A2994 RMK A01 T02310105  RH  045%=      5-min Rain = 0
KMC1 081926Z 18009KT 23/11 A2994 RMK A01 T02320106  RH  045%=      5-min Rain = 0
KMC1 081927Z 22008KT 23/11 A2994 RMK A01 T02340107  RH  045%=      5-min Rain = 0
KMC1 081928Z 22010KT 24/11 A2994 RMK A01 T02360107  RH  044%=      5-min Rain = 0
KMC1 081929Z 20008G14KT 24/11 A2994 RMK A01 T02370106  RH  044%=      5-min Rain = 0
KMC1 081930Z 22012KT 24/11 A2994 RMK A01 T02370105  RH  043%=      5-min Rain = 0
KMC1 081931Z 22013G18KT 24/10 A2993 RMK A01 T02360104  RH  043%=      5-min Rain = 0
KMC1 081932Z 22011G16KT 23/10 A2993 RMK A01 T02340103  RH  043%=      5-min Rain = 0
KMC1 081933Z 21009KT 23/10 A2993 RMK A01 T02330104  RH  044%=      5-min Rain = 0
KMC1 081934Z 21007G13KT 23/11 A2993 RMK A01 T02340107  RH  044%=      5-min Rain = 0
KMC1 081935Z 21010KT 24/11 A2993 RMK A01 T02390107  RH  044%=      5-min Rain = 0
KMC1 081936Z 22011G17KT 24/11 A2993 RMK A01 T02400105  RH  043%=      5-min Rain = 0
KMC1 081937Z 22011KT 24/11 A2993 RMK A01 T02380105  RH  043%=      5-min Rain = 0
KMC1 081938Z 22009G14KT 24/10 A2993 RMK A01 T02370103  RH  043%=      5-min Rain = 0
KMC1 081939Z 23010KT 24/10 A2993 RMK A01 T02350103  RH  043%=      5-min Rain = 0
KMC1 081940Z 22009KT 24/10 A2993 RMK A01 T02350104  RH  044%=      5-min Rain = 0
KMC1 081941Z 19006KT 24/11 A2993 RMK A01 T02350106  RH  044%=      5-min Rain = 0
KMC1 081942Z 21010KT 24/11 A2993 RMK A01 T02390105  RH  043%=      5-min Rain = 0
KMC1 081943Z 22011KT 24/10 A2993 RMK A01 T02400103  RH  042%=      5-min Rain = 0
KMC1 081944Z 21010KT 24/10 A2993 RMK A01 T02380102  RH  042%=      5-min Rain = 0
KMC1 081945Z 21010KT 24/10 A2993 RMK A01 T02350102  RH  043%=      5-min Rain = 0
KMC1 081946Z 21007KT 23/10 A2993 RMK A01 T02340102  RH  043%=      5-min Rain = 0
KMC1 081947Z 20010G16KT 23/10 A2993 RMK A01 T02330102  RH  043%=      5-min Rain = 0
KMC1 081948Z 21012KT 23/10 A2993 RMK A01 T02340101  RH  043%=      5-min Rain = 0
KMC1 081949Z 20012G17KT 23/10 A2993 RMK A01 T02330100  RH  043%=      5-min Rain = 0
KMC1 081950Z 21008G13KT 23/10 A2993 RMK A01 T02340100  RH  043%=      5-min Rain = 0
KMC1 081951Z 22009G14KT 24/10 A2993 RMK A01 T02370102  RH  042%=      5-min Rain = 0
KMC1 081952Z 21012G17KT 24/10 A2993 RMK A01 T02380101  RH  042%=      5-min Rain = 0
KMC1 081953Z 20015KT 24/10 A2993 RMK A01 T02370099  RH  042%=      5-min Rain = 0
KMC1 081954Z 20010KT 24/10 A2993 RMK A01 T02360099  RH  042%=      5-min Rain = 0
KMC1 081955Z 19009KT 24/10 A2993 RMK A01 T02360098  RH  042%=      5-min Rain = 0
KMC1 081956Z 19011G16KT 24/10 A2992 RMK A01 T02350099  RH  042%=      5-min Rain = 0
KMC1 081957Z 20013KT 24/10 A2992 RMK A01 T02350099  RH  042%=      5-min Rain = 0
KMC1 081958Z 20014KT 24/10 A2992 RMK A01 T02350099  RH  042%=      5-min Rain = 0
KMC1 081959Z 21010G16KT 23/10 A2992 RMK A01 T02340099  RH  043%=      5-min Rain = 0
KMC1 082000Z 22011KT 23/10 A2992 RMK A01 T02340100  RH  043%=      5-min Rain = 0
KMC1 082001Z 21012KT 24/10 A2992 RMK A01 T02350098  RH  042%=      5-min Rain = 0
KMC1 082002Z 23008KT 24/10 A2992 RMK A01 T02360097  RH  041%=      5-min Rain = 0
KMC1 082003Z 21007KT 24/10 A2992 RMK A01 T02370097  RH  041%=      5-min Rain = 0
KMC1 082004Z 19008KT 24/10 A2992 RMK A01 T02380099  RH  041%=      5-min Rain = 0
KMC1 082005Z 22007G12KT 24/10 A2992 RMK A01 T02400102  RH  042%=      5-min Rain = 0
KMC1 082006Z 22009KT 24/10 A2992 RMK A01 T02400101  RH  041%=      5-min Rain = 0
KMC1 082007Z 20007G12KT 24/10 A2992 RMK A01 T02390101  RH  042%=      5-min Rain = 0
KMC1 082008Z 20010KT 24/10 A2992 RMK A01 T02400101  RH  041%=      5-min Rain = 0
KMC1 082009Z 21010KT 24/10 A2992 RMK A01 T02400101  RH  041%=      5-min Rain = 0
KMC1 082010Z 22010G16KT 24/10 A2992 RMK A01 T02390099  RH  041%=      5-min Rain = 0
KMC1 082011Z 22008KT 24/10 A2992 RMK A01 T02370099  RH  042%=      5-min Rain = 0
KMC1 082012Z 21008G13KT 24/10 A2992 RMK A01 T02370100  RH  042%=      5-min Rain = 0
KMC1 082013Z 21012KT 24/10 A2992 RMK A01 T02380099  RH  042%=      5-min Rain = 0
KMC1 082014Z 20010G15KT 24/10 A2992 RMK A01 T02390098  RH  041%=      5-min Rain = 0
KMC1 082015Z 21011KT 24/10 A2992 RMK A01 T02400098  RH  041%=      5-min Rain = 0
KMC1 082016Z 22011KT 24/10 A2992 RMK A01 T02400097  RH  040%=      5-min Rain = 0
KMC1 082017Z 23009KT 24/10 A2992 RMK A01 T02400098  RH  041%=      5-min Rain = 0
KMC1 082018Z 23007KT 24/10 A2991 RMK A01 T02400098  RH  041%=      5-min Rain = 0
KMC1 082019Z 20007KT 24/10 A2991 RMK A01 T02400099  RH  041%=      5-min Rain = 0
KMC1 082020Z 20008KT 24/10 A2991 RMK A01 T02420101  RH  041%=      5-min Rain = 0
KMC1 082021Z 19008KT 24/10 A2991 RMK A01 T02430103  RH  041%=      5-min Rain = 0
KMC1 082022Z 19006KT 24/10 A2991 RMK A01 T02440103  RH  041%=      5-min Rain = 0
KMC1 082023Z 21007KT 24/10 A2991 RMK A01 T02430103  RH  041%=      5-min Rain = 0
KMC1 082024Z 20007KT 24/10 A2991 RMK A01 T02440103  RH  041%=      5-min Rain = 0
KMC1 082025Z 18008G13KT 24/10 A2991 RMK A01 T02440103  RH  041%=      5-min Rain = 0
KMC1 082026Z 19009KT 24/10 A2991 RMK A01 T02440102  RH  041%=      5-min Rain = 0
KMC1 082027Z 21009KT 24/10 A2991 RMK A01 T02420102  RH  041%=      5-min Rain = 0
KMC1 082028Z 21011KT 24/10 A2991 RMK A01 T02400100  RH  041%=      5-min Rain = 0
KMC1 082029Z 20009KT 24/10 A2991 RMK A01 T02380098  RH  041%=      5-min Rain = 0
KMC1 082030Z 21009KT 24/10 A2991 RMK A01 T02380099  RH  042%=      5-min Rain = 0
KMC1 082031Z 20008KT 24/10 A2991 RMK A01 T02390101  RH  042%=      5-min Rain = 0
KMC1 082032Z 21010KT 24/10 A2991 RMK A01 T02420101  RH  041%=      5-min Rain = 0
KMC1 082033Z 20007KT 24/10 A2991 RMK A01 T02430100  RH  040%=      5-min Rain = 0
KMC1 082034Z 19006KT 24/10 A2991 RMK A01 T02430101  RH  041%=      5-min Rain = 0
KMC1 082035Z 21010KT 25/10 A2991 RMK A01 T02450102  RH  040%=      5-min Rain = 0
KMC1 082036Z 20011KT 25/10 A2991 RMK A01 T02460101  RH  040%=      5-min Rain = 0
KMC1 082037Z 22009G14KT 25/10 A2991 RMK A01 T02460101  RH  040%=      5-min Rain = 0
KMC1 082038Z 21010KT 25/10 A2991 RMK A01 T02460100  RH  040%=      5-min Rain = 0
KMC1 082039Z 22007KT 25/10 A2991 RMK A01 T02470101  RH  040%=      5-min Rain = 0
KMC1 082040Z 22009KT 25/10 A2991 RMK A01 T02480102  RH  040%=      5-min Rain = 0
KMC1 082041Z 22009G14KT 25/10 A2991 RMK A01 T02490101  RH  039%=      5-min Rain = 0
KMC1 082042Z 19008G13KT 25/10 A2991 RMK A01 T02490101  RH  039%=      5-min Rain = 0
KMC1 082043Z 21011KT 25/10 A2991 RMK A01 T02500101  RH  039%=      5-min Rain = 0
KMC1 082044Z 20009KT 25/10 A2991 RMK A01 T02490101  RH  039%=      5-min Rain = 0
KMC1 082045Z 20009KT 25/10 A2991 RMK A01 T02480101  RH  039%=      5-min Rain = 0
KMC1 082046Z 20010KT 25/10 A2991 RMK A01 T02490100  RH  039%=      5-min Rain = 0
KMC1 082047Z 22008G13KT 25/10 A2991 RMK A01 T02480102  RH  040%=      5-min Rain = 0
KMC1 082048Z 20009G14KT 25/10 A2991 RMK A01 T02490101  RH  039%=      5-min Rain = 0
KMC1 082049Z 19011KT 25/10 A2991 RMK A01 T02490100  RH  039%=      5-min Rain = 0
KMC1 082050Z 19011KT 25/10 A299 RMK A01 T02490099  RH  039%=      5-min Rain = 0
KMC1 082051Z 20010G15KT 25/10 A299 RMK A01 T02500100  RH  039%=      5-min Rain = 0
KMC1 082052Z 20011KT 25/10 A299 RMK A01 T02500100  RH  039%=      5-min Rain = 0
KMC1 082053Z 22011KT 25/10 A299 RMK A01 T02500099  RH  039%=      5-min Rain = 0
KMC1 082054Z 20011KT 25/10 A299 RMK A01 T02490099  RH  039%=      5-min Rain = 0
KMC1 082055Z 21009KT 25/10 A299 RMK A01 T02470098  RH  039%=      5-min Rain = 0
KMC1 082056Z 20011KT 25/10 A299 RMK A01 T02470098  RH  039%=      5-min Rain = 0
KMC1 082057Z 20009G14KT 25/10 A299 RMK A01 T02470098  RH  039%=      5-min Rain = 0
KMC1 082058Z 19009KT 25/10 A299 RMK A01 T02470097  RH  039%=      5-min Rain = 0
KMC1 082059Z 19008G16KT 25/10 A299 RMK A01 T02480097  RH  039%=      5-min Rain = 0
KMC1 082100Z 19013KT 25/10 A299 RMK A01 T02480097  RH  038%=      5-min Rain = 0
KMC1 082101Z 18011G16KT 25/10 A2989 RMK A01 T02480097  RH  039%=      5-min Rain = 0
KMC1 082102Z 19011G16KT 25/10 A2989 RMK A01 T02460097  RH  039%=      5-min Rain = 0
KMC1 082103Z 18009G14KT 25/10 A2989 RMK A01 T02450097  RH  039%=      5-min Rain = 0
KMC1 082104Z 18010KT 25/10 A2989 RMK A01 T02450096  RH  039%=      5-min Rain = 0
KMC1 082105Z 20009KT 25/10 A2989 RMK A01 T02460097  RH  039%=      5-min Rain = 0
KMC1 082106Z 19006KT 25/10 A2989 RMK A01 T02470098  RH  039%=      5-min Rain = 0
KMC1 082107Z 21007KT 25/10 A2989 RMK A01 T02500099  RH  038%=      5-min Rain = 0
KMC1 082108Z 21010G16KT 25/10 A2989 RMK A01 T02510096  RH  038%=      5-min Rain = 0
KMC1 082109Z 21012KT 25/10 A2989 RMK A01 T02510096  RH  038%=      5-min Rain = 0
KMC1 082110Z 19008KT 25/10 A2989 RMK A01 T02490096  RH  038%=      5-min Rain = 0
KMC1 082111Z 19011KT 25/10 A2989 RMK A01 T02490096  RH  038%=      5-min Rain = 0
KMC1 082112Z 19008KT 25/10 A2989 RMK A01 T02490095  RH  038%=      5-min Rain = 0
KMC1 082113Z 19009KT 25/10 A2989 RMK A01 T02490095  RH  038%=      5-min Rain = 0
KMC1 082114Z 18011KT 25/09 A2989 RMK A01 T02480094  RH  038%=      5-min Rain = 0
KMC1 082115Z 18011KT 25/09 A2989 RMK A01 T02470094  RH  038%=      5-min Rain = 0
KMC1 082116Z 20008G13KT 25/09 A2989 RMK A01 T02460094  RH  038%=      5-min Rain = 0
KMC1 082117Z 20007KT 25/10 A2989 RMK A01 T02450095  RH  039%=      5-min Rain = 0
KMC1 082118Z 20007KT 25/10 A2989 RMK A01 T02450095  RH  039%=      5-min Rain = 0
KMC1 082119Z 19008KT 25/10 A2989 RMK A01 T02450095  RH  039%=      5-min Rain = 0
KMC1 082120Z 20007KT 25/10 A2989 RMK A01 T02460095  RH  038%=      5-min Rain = 0
KMC1 082121Z 19007KT 25/10 A2989 RMK A01 T02460095  RH  038%=      5-min Rain = 0
KMC1 082122Z 18011KT 25/09 A2989 RMK A01 T02470094  RH  038%=      5-min Rain = 0
KMC1 082123Z 20011KT 25/09 A2989 RMK A01 T02460093  RH  038%=      5-min Rain = 0
KMC1 082124Z 20008KT 25/09 A2989 RMK A01 T02450093  RH  038%=      5-min Rain = 0
KMC1 082125Z 20005KT 25/10 A2989 RMK A01 T02450095  RH  039%=      5-min Rain = 0
KMC1 082126Z 21007KT 25/10 A2989 RMK A01 T02470095  RH  038%=      5-min Rain = 0
KMC1 082127Z 21009KT 25/09 A2989 RMK A01 T02470094  RH  038%=      5-min Rain = 0
KMC1 082128Z 20010KT 25/09 A2989 RMK A01 T02470093  RH  038%=      5-min Rain = 0
KMC1 082129Z 20008KT 25/09 A2989 RMK A01 T02470093  RH  038%=      5-min Rain = 0
KMC1 082130Z 20008KT 25/09 A2989 RMK A01 T02460093  RH  038%=      5-min Rain = 0
KMC1 082131Z 20005KT 25/09 A2989 RMK A01 T02460094  RH  038%=      5-min Rain = 0
KMC1 082132Z 19008KT 25/09 A2989 RMK A01 T02480094  RH  038%=      5-min Rain = 0
KMC1 082133Z 21009KT 25/09 A2989 RMK A01 T02480093  RH  037%=      5-min Rain = 0
KMC1 082134Z 20011KT 25/09 A2989 RMK A01 T02470092  RH  037%=      5-min Rain = 0
KMC1 082135Z 22005KT 25/09 A2989 RMK A01 T02460091  RH  037%=      5-min Rain = 0
KMC1 082136Z 21010KT 25/09 A2989 RMK A01 T02460091  RH  037%=      5-min Rain = 0
KMC1 082137Z 21012KT 25/09 A2989 RMK A01 T02450089  RH  037%=      5-min Rain = 0
KMC1 082138Z 21010KT 25/09 A2989 RMK A01 T02450088  RH  037%=      5-min Rain = 0
KMC1 082139Z 21008KT 24/09 A2989 RMK A01 T02440088  RH  037%=      5-min Rain = 0
KMC1 082140Z 21010KT 24/09 A2989 RMK A01 T02440090  RH  037%=      5-min Rain = 0
KMC1 082141Z 21011KT 24/09 A2989 RMK A01 T02430089  RH  037%=      5-min Rain = 0
KMC1 082142Z 20007KT 24/09 A2989 RMK A01 T02430090  RH  038%=      5-min Rain = 0
KMC1 082143Z 20005KT 24/09 A2989 RMK A01 T02420090  RH  038%=      5-min Rain = 0
KMC1 082144Z 20006KT 24/09 A2989 RMK A01 T02430091  RH  038%=      5-min Rain = 0
KMC1 082145Z 20011G16KT 24/09 A2989 RMK A01 T02430091  RH  038%=      5-min Rain = 0
KMC1 082146Z 21011KT 24/09 A2989 RMK A01 T02430091  RH  038%=      5-min Rain = 0
KMC1 082147Z 21009KT 24/09 A2989 RMK A01 T02430091  RH  038%=      5-min Rain = 0
KMC1 082148Z 20009KT 24/09 A2989 RMK A01 T02430091  RH  038%=      5-min Rain = 0
KMC1 082149Z 20008G13KT 24/09 A2989 RMK A01 T02430091  RH  038%=      5-min Rain = 0
KMC1 082150Z 20009KT 24/09 A2989 RMK A01 T02440091  RH  038%=      5-min Rain = 0
KMC1 082151Z 21012KT 24/09 A2989 RMK A01 T02430091  RH  038%=      5-min Rain = 0
KMC1 082152Z 20008KT 24/09 A2989 RMK A01 T02430090  RH  038%=      5-min Rain = 0
KMC1 082153Z 21009KT 24/09 A2989 RMK A01 T02430092  RH  038%=      5-min Rain = 0
KMC1 082154Z 22011KT 24/09 A2989 RMK A01 T02440090  RH  038%=      5-min Rain = 0
KMC1 082155Z 21011KT 24/09 A2989 RMK A01 T02440090  RH  038%=      5-min Rain = 0
KMC1 082156Z 20013KT 24/09 A2989 RMK A01 T02430090  RH  038%=      5-min Rain = 0
KMC1 082157Z 20011KT 24/09 A2989 RMK A01 T02420090  RH  038%=      5-min Rain = 0
KMC1 082158Z 20009KT 24/09 A2989 RMK A01 T02420090  RH  038%=      5-min Rain = 0
KMC1 082159Z 22010G15KT 24/09 A2989 RMK A01 T02420090  RH  038%=      5-min Rain = 0
KMC1 082200Z 21010KT 24/09 A2989 RMK A01 T02430089  RH  038%=      5-min Rain = 0
KMC1 082201Z 21010KT 24/09 A2989 RMK A01 T02430087  RH  037%=      5-min Rain = 0
KMC1 082202Z 21011KT 24/09 A2989 RMK A01 T02430087  RH  037%=      5-min Rain = 0
KMC1 082203Z 20009KT 24/09 A2989 RMK A01 T02430088  RH  037%=      5-min Rain = 0
KMC1 082204Z 22008KT 24/09 A2989 RMK A01 T02430088  RH  037%=      5-min Rain = 0
KMC1 082205Z 22010KT 24/09 A2989 RMK A01 T02430087  RH  037%=      5-min Rain = 0
KMC1 082206Z 21011KT 24/09 A2989 RMK A01 T02430087  RH  037%=      5-min Rain = 0
KMC1 082207Z 22011KT 24/09 A2989 RMK A01 T02430087  RH  037%=      5-min Rain = 0
KMC1 082208Z 21009KT 24/09 A2989 RMK A01 T02430087  RH  037%=      5-min Rain = 0
KMC1 082209Z 22010KT 24/09 A2989 RMK A01 T02420088  RH  037%=      5-min Rain = 0
KMC1 082210Z 21009KT 24/09 A2989 RMK A01 T02430088  RH  037%=      5-min Rain = 0
KMC1 082211Z 20012KT 24/09 A2989 RMK A01 T02420088  RH  037%=      5-min Rain = 0
KMC1 082212Z 20012KT 24/09 A2989 RMK A01 T02410088  RH  038%=      5-min Rain = 0
KMC1 082213Z 21011KT 24/09 A2989 RMK A01 T02410088  RH  038%=      5-min Rain = 0
KMC1 082214Z 20009G14KT 24/09 A2989 RMK A01 T02410089  RH  038%=      5-min Rain = 0
KMC1 082215Z 20009KT 24/09 A2989 RMK A01 T02400089  RH  038%=      5-min Rain = 0
KMC1 082216Z 21009KT 24/09 A2989 RMK A01 T02400090  RH  038%=      5-min Rain = 0
KMC1 082217Z 20009KT 24/09 A2989 RMK A01 T02400089  RH  038%=      5-min Rain = 0
KMC1 082218Z 20009G14KT 24/09 A2989 RMK A01 T02400090  RH  038%=      5-min Rain = 0
KMC1 082219Z 21010KT 24/09 A2988 RMK A01 T02400090  RH  038%=      5-min Rain = 0
KMC1 082220Z 21010KT 24/09 A2988 RMK A01 T02400089  RH  038%=      5-min Rain = 0
KMC1 082221Z 21008KT 24/09 A2988 RMK A01 T02390090  RH  038%=      5-min Rain = 0
KMC1 082222Z 21010KT 24/09 A2988 RMK A01 T02390090  RH  039%=      5-min Rain = 0
KMC1 082223Z 20011KT 24/09 A2988 RMK A01 T02390089  RH  038%=      5-min Rain = 0
KMC1 082224Z 20008KT 24/09 A2988 RMK A01 T02390088  RH  038%=      5-min Rain = 0
KMC1 082225Z 20008KT 24/09 A2988 RMK A01 T02390089  RH  038%=      5-min Rain = 0
KMC1 082226Z 19008KT 24/09 A2988 RMK A01 T02390089  RH  038%=      5-min Rain = 0
KMC1 082227Z 19011KT 24/09 A2988 RMK A01 T02390088  RH  038%=      5-min Rain = 0
KMC1 082228Z 20010G15KT 24/09 A2988 RMK A01 T02390088  RH  038%=      5-min Rain = 0
KMC1 082229Z 21011KT 24/09 A2988 RMK A01 T02390088  RH  038%=      5-min Rain = 0
KMC1 082230Z 21009G14KT 24/09 A2988 RMK A01 T02390088  RH  038%=      5-min Rain = 0
KMC1 082231Z 20008KT 24/09 A2988 RMK A01 T02380088  RH  038%=      5-min Rain = 0
KMC1 082232Z 20010KT 24/09 A2988 RMK A01 T02380089  RH  039%=      5-min Rain = 0
KMC1 082233Z 21011KT 24/09 A2988 RMK A01 T02370088  RH  038%=      5-min Rain = 0
KMC1 082234Z 20007KT 24/09 A2988 RMK A01 T02370088  RH  039%=      5-min Rain = 0
KMC1 082235Z 20006KT 24/09 A2988 RMK A01 T02370089  RH  039%=      5-min Rain = 0
KMC1 082236Z 19009KT 24/09 A2989 RMK A01 T02370089  RH  039%=      5-min Rain = 0
KMC1 082237Z 21006G11KT 24/09 A2989 RMK A01 T02370088  RH  039%=      5-min Rain = 0
KMC1 082238Z 20004KT 24/09 A2989 RMK A01 T02370089  RH  039%=      5-min Rain = 0
KMC1 082239Z 22005KT 24/09 A2989 RMK A01 T02360090  RH  039%=      5-min Rain = 0
KMC1 082240Z 19006G11KT 24/09 A2989 RMK A01 T02360090  RH  039%=      5-min Rain = 0
KMC1 082241Z 20006KT 24/09 A2989 RMK A01 T02360090  RH  039%=      5-min Rain = 0
KMC1 082242Z 19006KT 24/09 A2989 RMK A01 T02350090  RH  039%=      5-min Rain = 0
KMC1 082243Z 19009KT 24/09 A2989 RMK A01 T02350090  RH  040%=      5-min Rain = 0
KMC1 082244Z 20008KT 24/09 A2989 RMK A01 T02350090  RH  040%=      5-min Rain = 0
KMC1 082245Z 20008KT 24/09 A2989 RMK A01 T02350090  RH  040%=      5-min Rain = 0
KMC1 082246Z 20006KT 24/09 A2989 RMK A01 T02350090  RH  040%=      5-min Rain = 0
KMC1 082247Z 21007KT 23/09 A2989 RMK A01 T02340090  RH  040%=      5-min Rain = 0
KMC1 082248Z 20006KT 23/09 A2989 RMK A01 T02340090  RH  040%=      5-min Rain = 0
KMC1 082249Z 20008KT 23/09 A2989 RMK A01 T02340090  RH  040%=      5-min Rain = 0
KMC1 082250Z 20007KT 23/09 A2989 RMK A01 T02340091  RH  040%=      5-min Rain = 0
KMC1 082251Z 22006KT 23/09 A2989 RMK A01 T02330091  RH  040%=      5-min Rain = 0
KMC1 082252Z 20007KT 23/09 A2989 RMK A01 T02330091  RH  040%=      5-min Rain = 0
KMC1 082253Z 19008KT 23/09 A2989 RMK A01 T02330091  RH  040%=      5-min Rain = 0
KMC1 082254Z 20009KT 23/09 A2989 RMK A01 T02330091  RH  040%=      5-min Rain = 0
KMC1 082255Z 21008KT 23/09 A2989 RMK A01 T02330092  RH  041%=      5-min Rain = 0
KMC1 082256Z 21010KT 23/09 A2989 RMK A01 T02320092  RH  041%=      5-min Rain = 0
KMC1 082257Z 20009KT 23/09 A2989 RMK A01 T02320092  RH  041%=      5-min Rain = 0
KMC1 082258Z 20009KT 23/09 A2989 RMK A01 T02320091  RH  041%=      5-min Rain = 0
KMC1 082259Z 20007G12KT 23/09 A2989 RMK A01 T02320092  RH  041%=      5-min Rain = 0
KMC1 082300Z 20008KT 23/09 A2989 RMK A01 T02320092  RH  041%=      5-min Rain = 0
KMC1 082301Z 20007KT 23/09 A2989 RMK A01 T02320092  RH  041%=      5-min Rain = 0
KMC1 082302Z 20007KT 23/09 A2989 RMK A01 T02310092  RH  041%=      5-min Rain = 0
KMC1 082303Z 20009KT 23/09 A2989 RMK A01 T02310092  RH  041%=      5-min Rain = 0
KMC1 082304Z 20007KT 23/09 A2989 RMK A01 T02300092  RH  041%=      5-min Rain = 0
KMC1 082305Z 20007KT 23/09 A2989 RMK A01 T02300092  RH  041%=      5-min Rain = 0
KMC1 082306Z 20007KT 23/09 A2989 RMK A01 T02300092  RH  041%=      5-min Rain = 0
KMC1 082307Z 20007G12KT 23/09 A2989 RMK A01 T02290092  RH  041%=      5-min Rain = 0
KMC1 082308Z 20008KT 23/09 A2989 RMK A01 T02290092  RH  042%=      5-min Rain = 0
KMC1 082309Z 20008KT 23/09 A2989 RMK A01 T02290092  RH  042%=      5-min Rain = 0
KMC1 082310Z 20006KT 23/09 A2989 RMK A01 T02290092  RH  042%=      5-min Rain = 0
KMC1 082311Z 21007KT 23/09 A2989 RMK A01 T02280092  RH  042%=      5-min Rain = 0
KMC1 082312Z 21008KT 23/09 A2989 RMK A01 T02280092  RH  042%=      5-min Rain = 0
KMC1 082313Z 20008KT 23/09 A2989 RMK A01 T02280092  RH  042%=      5-min Rain = 0
KMC1 082314Z 20008KT 23/09 A2989 RMK A01 T02270092  RH  042%=      5-min Rain = 0
KMC1 082315Z 20008KT 23/09 A2989 RMK A01 T02270092  RH  042%=      5-min Rain = 0
KMC1 082316Z 20007KT 23/09 A2989 RMK A01 T02270092  RH  042%=      5-min Rain = 0
KMC1 082317Z 20007KT 23/09 A2989 RMK A01 T02270092  RH  042%=      5-min Rain = 0
KMC1 082318Z 21007KT 23/09 A2989 RMK A01 T02260092  RH  042%=      5-min Rain = 0
KMC1 082319Z 20006KT 23/09 A2989 RMK A01 T02260092  RH  043%=      5-min Rain = 0
KMC1 082320Z 20005KT 23/09 A2989 RMK A01 T02250092  RH  043%=      5-min Rain = 0
KMC1 082321Z 19006KT 22/09 A2989 RMK A01 T02240092  RH  043%=      5-min Rain = 0
KMC1 082322Z 20006KT 22/09 A2989 RMK A01 T02230092  RH  043%=      5-min Rain = 0
KMC1 082323Z 19006KT 22/09 A2989 RMK A01 T02230092  RH  043%=      5-min Rain = 0
KMC1 082324Z 20005KT 22/09 A2989 RMK A01 T02220092  RH  043%=      5-min Rain = 0
KMC1 082325Z 19005KT 22/09 A2989 RMK A01 T02210092  RH  044%=      5-min Rain = 0
KMC1 082326Z 20005KT 22/09 A2989 RMK A01 T02210092  RH  044%=      5-min Rain = 0
KMC1 082327Z 18005KT 22/09 A2989 RMK A01 T02200092  RH  044%=      5-min Rain = 0
KMC1 082328Z 19007KT 22/09 A2989 RMK A01 T02200092  RH  044%=      5-min Rain = 0
KMC1 082329Z 19006KT 22/09 A2989 RMK A01 T02200092  RH  044%=      5-min Rain = 0
KMC1 082330Z 19005KT 22/09 A2989 RMK A01 T02190092  RH  044%=      5-min Rain = 0
KMC1 082331Z 20005KT 22/09 A2989 RMK A01 T02190092  RH  044%=      5-min Rain = 0
KMC1 082332Z 20006KT 22/09 A2989 RMK A01 T02180092  RH  044%=      5-min Rain = 0
KMC1 082333Z 20006KT 22/09 A2989 RMK A01 T02180092  RH  045%=      5-min Rain = 0
KMC1 082334Z 20005KT 22/09 A2989 RMK A01 T02170092  RH  045%=      5-min Rain = 0
KMC1 082335Z 20006KT 22/09 A2989 RMK A01 T02170092  RH  045%=      5-min Rain = 0
KMC1 082336Z 20007KT 22/09 A2989 RMK A01 T02170092  RH  045%=      5-min Rain = 0
KMC1 082337Z 19006KT 22/09 A2989 RMK A01 T02170092  RH  045%=      5-min Rain = 0
KMC1 082338Z 20006KT 22/09 A2989 RMK A01 T02160092  RH  045%=      5-min Rain = 0
KMC1 082339Z 21007KT 22/09 A2989 RMK A01 T02160092  RH  045%=      5-min Rain = 0
KMC1 082340Z 21006KT 22/09 A2989 RMK A01 T02160092  RH  045%=      5-min Rain = 0
KMC1 082341Z 21006KT 22/09 A2989 RMK A01 T02150092  RH  045%=      5-min Rain = 0
KMC1 082342Z 20007KT 21/09 A2989 RMK A01 T02140092  RH  045%=      5-min Rain = 0
KMC1 082343Z 21005KT 21/09 A2989 RMK A01 T02140092  RH  046%=      5-min Rain = 0
KMC1 082344Z 21006KT 21/09 A2989 RMK A01 T02140092  RH  046%=      5-min Rain = 0
KMC1 082345Z 21005KT 21/09 A2989 RMK A01 T02140092  RH  046%=      5-min Rain = 0
KMC1 082346Z 21005KT 21/09 A2989 RMK A01 T02130092  RH  046%=      5-min Rain = 0
KMC1 082347Z 21004KT 21/09 A2989 RMK A01 T02130092  RH  046%=      5-min Rain = 0
KMC1 082348Z 21004KT 21/09 A2989 RMK A01 T02130092  RH  046%=      5-min Rain = 0
KMC1 082349Z 21004KT 21/09 A2989 RMK A01 T02120092  RH  046%=      5-min Rain = 0
KMC1 082350Z 22005KT 21/09 A2989 RMK A01 T02110092  RH  046%=      5-min Rain = 0
KMC1 082351Z 21005KT 21/09 A2989 RMK A01 T02100092  RH  047%=      5-min Rain = 0
KMC1 082352Z 21005KT 21/09 A2989 RMK A01 T02100092  RH  047%=      5-min Rain = 0
KMC1 082353Z 21004KT 21/09 A2989 RMK A01 T02090092  RH  047%=      5-min Rain = 0
KMC1 082354Z 21005KT 21/09 A2989 RMK A01 T02090092  RH  047%=      5-min Rain = 0
KMC1 082355Z 21005KT 21/09 A2989 RMK A01 T02090092  RH  047%=      5-min Rain = 0
KMC1 082356Z 21004KT 21/09 A2989 RMK A01 T02080092  RH  047%=      5-min Rain = 0
KMC1 082357Z 21005KT 21/09 A2989 RMK A01 T02070092  RH  047%=      5-min Rain = 0
KMC1 082358Z 22004KT 21/09 A2989 RMK A01 T02070092  RH  048%=      5-min Rain = 0
KMC1 082359Z 21004KT 21/09 A2989 RMK A01 T02060092  RH  048%=      5-min Rain = 0
KMC1 090000Z 20005KT 21/09 A2989 RMK A01 T02050092  RH  048%=      5-min Rain = 0
KMC1 090001Z 20005KT 21/09 A2989 RMK A01 T02050092  RH  048%=      5-min Rain = 0
KMC1 090002Z 20004KT 20/09 A2989 RMK A01 T02040092  RH  048%=      5-min Rain = 0
KMC1 090003Z 20004KT 20/09 A2989 RMK A01 T02030092  RH  049%=      5-min Rain = 0
KMC1 090004Z 19004KT 20/09 A2989 RMK A01 T02030092  RH  049%=      5-min Rain = 0
KMC1 090005Z 20004KT 20/09 A2989 RMK A01 T02020092  RH  049%=      5-min Rain = 0
KMC1 090006Z 20005KT 20/09 A2989 RMK A01 T02010092  RH  049%=      5-min Rain = 0
KMC1 090007Z 19004KT 20/09 A2989 RMK A01 T02010092  RH  049%=      5-min Rain = 0
KMC1 090008Z 20004KT 20/09 A2989 RMK A01 T02000092  RH  050%=      5-min Rain = 0
KMC1 090009Z 20004KT 20/09 A2989 RMK A01 T02000092  RH  050%=      5-min Rain = 0
KMC1 090010Z 21004KT 20/09 A2989 RMK A01 T01990092  RH  050%=      5-min Rain = 0
KMC1 090011Z 20004KT 20/09 A2989 RMK A01 T01980092  RH  050%=      5-min Rain = 0
KMC1 090012Z 20004KT 20/09 A2989 RMK A01 T01980092  RH  050%=      5-min Rain = 0
KMC1 090013Z 20004KT 20/09 A2989 RMK A01 T01970092  RH  051%=      5-min Rain = 0
KMC1 090014Z 20004KT 20/09 A2989 RMK A01 T01970092  RH  051%=      5-min Rain = 0
KMC1 090015Z 20004KT 20/09 A2989 RMK A01 T01970092  RH  051%=      5-min Rain = 0
KMC1 090016Z 20005KT 20/09 A2989 RMK A01 T01970092  RH  051%=      5-min Rain = 0
KMC1 090017Z 19004KT 20/09 A2989 RMK A01 T01960092  RH  051%=      5-min Rain = 0
KMC1 090018Z 19005KT 20/09 A2989 RMK A01 T01960092  RH  051%=      5-min Rain = 0
KMC1 090019Z 20004KT 20/09 A2989 RMK A01 T01950093  RH  051%=      5-min Rain = 0
KMC1 090020Z 20004KT 20/09 A2989 RMK A01 T01950092  RH  051%=      5-min Rain = 0
KMC1 090021Z 19005KT 20/09 A2989 RMK A01 T01950093  RH  052%=      5-min Rain = 0
KMC1 090022Z 19005KT 19/09 A2989 RMK A01 T01940093  RH  052%=      5-min Rain = 0
KMC1 090023Z 19004KT 20/09 A2989 RMK A01 T01950094  RH  052%=      5-min Rain = 0
KMC1 090024Z 20004KT 19/09 A2989 RMK A01 T01940093  RH  052%=      5-min Rain = 0
KMC1 090025Z 19004KT 19/09 A2989 RMK A01 T01940094  RH  052%=      5-min Rain = 0
KMC1 090026Z 19005KT 19/09 A2989 RMK A01 T01940094  RH  052%=      5-min Rain = 0
KMC1 090027Z 19004KT 19/09 A2989 RMK A01 T01940094  RH  052%=      5-min Rain = 0
KMC1 090028Z 19004KT 19/09 A2989 RMK A01 T01940094  RH  052%=      5-min Rain = 0
KMC1 090029Z 20005KT 19/09 A2989 RMK A01 T01940094  RH  052%=      5-min Rain = 0
KMC1 090030Z 19004KT 19/09 A2989 RMK A01 T01940094  RH  052%=      5-min Rain = 0
KMC1 090031Z 19004KT 19/09 A2989 RMK A01 T01930094  RH  053%=      5-min Rain = 0
KMC1 090032Z 19004KT 19/09 A2989 RMK A01 T01920094  RH  053%=      5-min Rain = 0
KMC1 090033Z 18005KT 19/10 A2989 RMK A01 T01920095  RH  053%=      5-min Rain = 0
KMC1 090034Z 18004KT 19/09 A2989 RMK A01 T01920094  RH  053%=      5-min Rain = 0
KMC1 090035Z 19005KT 19/10 A2989 RMK A01 T01910095  RH  053%=      5-min Rain = 0
KMC1 090036Z 18006KT 19/10 A2989 RMK A01 T01910095  RH  054%=      5-min Rain = 0
KMC1 090037Z 18005KT 19/09 A2989 RMK A01 T01910094  RH  053%=      5-min Rain = 0
KMC1 090038Z 19004KT 19/09 A2989 RMK A01 T01910094  RH  054%=      5-min Rain = 0
KMC1 090039Z 19004KT 19/10 A2989 RMK A01 T01910095  RH  054%=      5-min Rain = 0
KMC1 090040Z 18005KT 19/10 A2989 RMK A01 T01900095  RH  054%=      5-min Rain = 0
KMC1 090041Z 18006KT 19/10 A2989 RMK A01 T01900095  RH  054%=      5-min Rain = 0
KMC1 090042Z 18005KT 19/10 A2989 RMK A01 T01900095  RH  054%=      5-min Rain = 0
KMC1 090043Z 17005KT 19/10 A2989 RMK A01 T01900095  RH  054%=      5-min Rain = 0
KMC1 090044Z 17005KT 19/10 A2988 RMK A01 T01900095  RH  054%=      5-min Rain = 0
KMC1 090045Z 18006KT 19/10 A2988 RMK A01 T01900095  RH  054%=      5-min Rain = 0
KMC1 090046Z 18005KT 19/10 A2989 RMK A01 T01900095  RH  054%=      5-min Rain = 0
KMC1 090047Z 18006KT 19/10 A2989 RMK A01 T01910095  RH  054%=      5-min Rain = 0
KMC1 090048Z 18006KT 19/10 A2989 RMK A01 T01910095  RH  054%=      5-min Rain = 0
KMC1 090049Z 18006KT 19/10 A2989 RMK A01 T01910095  RH  054%=      5-min Rain = 0
KMC1 090050Z 18007KT 19/10 A2989 RMK A01 T01900095  RH  054%=      5-min Rain = 0
KMC1 090051Z 18007KT 19/10 A2989 RMK A01 T01900095  RH  054%=      5-min Rain = 0
KMC1 090052Z 18006KT 19/10 A2989 RMK A01 T01910095  RH  054%=      5-min Rain = 0
KMC1 090053Z 18006KT 19/10 A2989 RMK A01 T01910095  RH  054%=      5-min Rain = 0
KMC1 090054Z 19005KT 19/10 A2989 RMK A01 T01910095  RH  054%=      5-min Rain = 0
KMC1 090055Z 19005KT 19/10 A2989 RMK A01 T01910095  RH  054%=      5-min Rain = 0
KMC1 090056Z 19006KT 19/10 A2989 RMK A01 T01910095  RH  054%=      5-min Rain = 0
KMC1 090057Z 19005KT 19/10 A2989 RMK A01 T01910095  RH  054%=      5-min Rain = 0
KMC1 090058Z 18005KT 19/10 A2989 RMK A01 T01910095  RH  054%=      5-min Rain = 0
KMC1 090059Z 18005KT 19/10 A2989 RMK A01 T01910095  RH  054%=      5-min Rain = 0
KMC1 090100Z 18004KT 19/10 A2989 RMK A01 T01900095  RH  054%=      5-min Rain = 0
KMC1 090101Z 19005KT 19/10 A2989 RMK A01 T01890095  RH  054%=      5-min Rain = 0
KMC1 090102Z 19004KT 19/10 A2989 RMK A01 T01890095  RH  054%=      5-min Rain = 0
KMC1 090103Z 18005KT 19/10 A2989 RMK A01 T01890095  RH  054%=      5-min Rain = 0
KMC1 090104Z 19005KT 19/10 A2989 RMK A01 T01890095  RH  054%=      5-min Rain = 0
KMC1 090105Z 18005KT 19/10 A2989 RMK A01 T01900095  RH  054%=      5-min Rain = 0
KMC1 090106Z 18006KT 19/10 A2989 RMK A01 T01900095  RH  054%=      5-min Rain = 0
KMC1 090107Z 18006KT 19/10 A2989 RMK A01 T01890095  RH  054%=      5-min Rain = 0
KMC1 090108Z 18006KT 19/10 A2989 RMK A01 T01880095  RH  055%=      5-min Rain = 0
KMC1 090109Z 19005KT 19/10 A2989 RMK A01 T01880095  RH  055%=      5-min Rain = 0
KMC1 090110Z 19006KT 19/10 A2989 RMK A01 T01880096  RH  055%=      5-min Rain = 0
KMC1 090111Z 19005KT 19/10 A2989 RMK A01 T01880095  RH  055%=      5-min Rain = 0
KMC1 090112Z 19005KT 19/10 A2989 RMK A01 T01880095  RH  055%=      5-min Rain = 0
KMC1 090113Z 19005KT 19/10 A299 RMK A01 T01880096  RH  055%=      5-min Rain = 0
KMC1 090114Z 19005KT 19/10 A299 RMK A01 T01880096  RH  055%=      5-min Rain = 0
KMC1 090115Z 19004KT 19/10 A299 RMK A01 T01880095  RH  055%=      5-min Rain = 0
KMC1 090116Z 19006KT 19/10 A299 RMK A01 T01870095  RH  055%=      5-min Rain = 0
KMC1 090117Z 19006KT 19/10 A299 RMK A01 T01870095  RH  055%=      5-min Rain = 0
KMC1 090118Z 19004KT 19/10 A299 RMK A01 T01870096  RH  055%=      5-min Rain = 0
KMC1 090119Z 19005KT 19/10 A299 RMK A01 T01870096  RH  055%=      5-min Rain = 0
KMC1 090120Z 20005KT 19/10 A299 RMK A01 T01870096  RH  055%=      5-min Rain = 0
KMC1 090121Z 20004KT 19/10 A299 RMK A01 T01870096  RH  055%=      5-min Rain = 0
KMC1 090122Z 19005KT 19/10 A299 RMK A01 T01870096  RH  055%=      5-min Rain = 0
KMC1 090123Z 19004KT 19/10 A299 RMK A01 T01860095  RH  056%=      5-min Rain = 0
KMC1 090124Z 19004KT 19/10 A299 RMK A01 T01860095  RH  056%=      5-min Rain = 0
KMC1 090125Z 20004KT 19/10 A299 RMK A01 T01850096  RH  056%=      5-min Rain = 0
KMC1 090126Z 19004KT 19/10 A299 RMK A01 T01850096  RH  056%=      5-min Rain = 0
KMC1 090127Z 19004KT 19/10 A299 RMK A01 T01850096  RH  056%=      5-min Rain = 0
KMC1 090128Z 18005KT 18/10 A299 RMK A01 T01840096  RH  056%=      5-min Rain = 0
KMC1 090129Z 18005KT 18/10 A299 RMK A01 T01840096  RH  056%=      5-min Rain = 0
KMC1 090130Z 18005KT 18/10 A299 RMK A01 T01840096  RH  056%=      5-min Rain = 0
KMC1 090131Z 18006KT 18/10 A299 RMK A01 T01840096  RH  056%=      5-min Rain = 0
KMC1 090132Z 18005KT 18/10 A299 RMK A01 T01840096  RH  056%=      5-min Rain = 0
KMC1 090133Z 19004KT 18/10 A299 RMK A01 T01840096  RH  056%=      5-min Rain = 0
KMC1 090134Z 18004KT 18/10 A299 RMK A01 T01830096  RH  057%=      5-min Rain = 0
KMC1 090135Z 18005KT 18/10 A299 RMK A01 T01830096  RH  057%=      5-min Rain = 0
KMC1 090136Z 18005KT 18/10 A299 RMK A01 T01820095  RH  057%=      5-min Rain = 0
KMC1 090137Z 18004KT 18/10 A299 RMK A01 T01830096  RH  057%=      5-min Rain = 0
KMC1 090138Z 18003KT 18/10 A299 RMK A01 T01830096  RH  057%=      5-min Rain = 0
KMC1 090139Z 18004KT 18/10 A299 RMK A01 T01820096  RH  057%=      5-min Rain = 0
KMC1 090140Z 18004KT 18/10 A299 RMK A01 T01810095  RH  057%=      5-min Rain = 0
KMC1 090141Z 19004KT 18/10 A299 RMK A01 T01810096  RH  057%=      5-min Rain = 0
KMC1 090142Z 18004KT 18/10 A299 RMK A01 T01800095  RH  058%=      5-min Rain = 0
KMC1 090143Z 18004KT 18/10 A299 RMK A01 T01800095  RH  058%=      5-min Rain = 0
KMC1 090144Z 18004KT 18/10 A299 RMK A01 T01790095  RH  058%=      5-min Rain = 0
KMC1 090145Z 18004KT 18/10 A299 RMK A01 T01790095  RH  058%=      5-min Rain = 0
KMC1 090146Z 18005KT 18/10 A299 RMK A01 T01790096  RH  058%=      5-min Rain = 0
KMC1 090147Z 18005KT 18/10 A299 RMK A01 T01780095  RH  058%=      5-min Rain = 0
KMC1 090148Z 18004KT 18/10 A299 RMK A01 T01780095  RH  058%=      5-min Rain = 0
KMC1 090149Z 18004KT 18/10 A299 RMK A01 T01770095  RH  059%=      5-min Rain = 0
KMC1 090150Z 19003KT 18/10 A299 RMK A01 T01770095  RH  059%=      5-min Rain = 0
KMC1 090151Z 18004KT 18/10 A299 RMK A01 T01780096  RH  059%=      5-min Rain = 0
KMC1 090152Z 19004KT 18/10 A299 RMK A01 T01770096  RH  059%=      5-min Rain = 0
KMC1 090153Z 18004KT 18/10 A299 RMK A01 T01770096  RH  059%=      5-min Rain = 0
KMC1 090154Z 19004KT 18/10 A299 RMK A01 T01770095  RH  059%=      5-min Rain = 0
KMC1 090155Z 19004KT 18/10 A299 RMK A01 T01770096  RH  059%=      5-min Rain = 0
KMC1 090156Z 20005KT 18/10 A299 RMK A01 T01770096  RH  059%=      5-min Rain = 0
KMC1 090157Z 20005KT 18/10 A299 RMK A01 T01770096  RH  059%=      5-min Rain = 0
KMC1 090158Z 19005KT 18/10 A299 RMK A01 T01770096  RH  059%=      5-min Rain = 0
KMC1 090159Z 19007KT 18/10 A299 RMK A01 T01770096  RH  059%=      5-min Rain = 0
KMC1 090200Z 19007KT 18/10 A299 RMK A01 T01770097  RH  059%=      5-min Rain = 0
KMC1 090201Z 19006KT 18/10 A299 RMK A01 T01780097  RH  059%=      5-min Rain = 0
KMC1 090202Z 19005KT 18/10 A299 RMK A01 T01780097  RH  059%=      5-min Rain = 0
KMC1 090203Z 19004KT 18/10 A299 RMK A01 T01780097  RH  059%=      5-min Rain = 0
KMC1 090204Z 20006KT 18/10 A299 RMK A01 T01780097  RH  059%=      5-min Rain = 0
KMC1 090205Z 20005KT 18/10 A299 RMK A01 T01780098  RH  059%=      5-min Rain = 0
KMC1 090206Z 20005KT 18/10 A2991 RMK A01 T01780097  RH  059%=      5-min Rain = 0
KMC1 090207Z 19005KT 18/10 A2991 RMK A01 T01770098  RH  060%=      5-min Rain = 0
KMC1 090208Z 20006KT 18/10 A2991 RMK A01 T01760097  RH  060%=      5-min Rain = 0
KMC1 090209Z 19005KT 18/10 A2991 RMK A01 T01770098  RH  060%=      5-min Rain = 0
KMC1 090210Z 20006KT 18/10 A2991 RMK A01 T01770098  RH  060%=      5-min Rain = 0
KMC1 090211Z 19006KT 18/10 A2991 RMK A01 T01770098  RH  060%=      5-min Rain = 0
KMC1 090212Z 19006KT 18/10 A2991 RMK A01 T01780098  RH  060%=      5-min Rain = 0
KMC1 090213Z 20005KT 18/10 A299 RMK A01 T01780098  RH  059%=      5-min Rain = 0
KMC1 090214Z 19005KT 18/10 A299 RMK A01 T01790098  RH  059%=      5-min Rain = 0
KMC1 090215Z 19005G10KT 18/10 A299 RMK A01 T01780098  RH  060%=      5-min Rain = 0
KMC1 090216Z 20005KT 18/10 A299 RMK A01 T01780099  RH  060%=      5-min Rain = 0
KMC1 090217Z 19006KT 18/10 A299 RMK A01 T01770099  RH  060%=      5-min Rain = 0
KMC1 090218Z 19006KT 18/10 A299 RMK A01 T01770099  RH  060%=      5-min Rain = 0
KMC1 090219Z 19005KT 18/10 A299 RMK A01 T01770099  RH  060%=      5-min Rain = 0
KMC1 090220Z 18007KT 18/10 A299 RMK A01 T01770099  RH  060%=      5-min Rain = 0
KMC1 090221Z 19008KT 18/10 A299 RMK A01 T01770099  RH  060%=      5-min Rain = 0
KMC1 090222Z 19007KT 18/10 A299 RMK A01 T01780099  RH  060%=      5-min Rain = 0
KMC1 090223Z 19006KT 18/10 A299 RMK A01 T01780099  RH  060%=      5-min Rain = 0
KMC1 090224Z 19006KT 18/10 A299 RMK A01 T01780100  RH  060%=      5-min Rain = 0
KMC1 090225Z 19007KT 18/10 A299 RMK A01 T01780099  RH  060%=      5-min Rain = 0
KMC1 090226Z 19005KT 18/10 A299 RMK A01 T01780099  RH  060%=      5-min Rain = 0
KMC1 090227Z 19006KT 18/10 A299 RMK A01 T01780099  RH  060%=      5-min Rain = 0
KMC1 090228Z 19006KT 18/10 A299 RMK A01 T01770100  RH  060%=      5-min Rain = 0
KMC1 090229Z 19005KT 18/10 A299 RMK A01 T01770100  RH  060%=      5-min Rain = 0
KMC1 090230Z 19007KT 18/10 A299 RMK A01 T01770100  RH  061%=      5-min Rain = 0
KMC1 090231Z 19005KT 18/10 A299 RMK A01 T01770100  RH  061%=      5-min Rain = 0
KMC1 090232Z 19007KT 18/10 A299 RMK A01 T01770100  RH  061%=      5-min Rain = 0
KMC1 090233Z 19005KT 18/10 A299 RMK A01 T01770100  RH  061%=      5-min Rain = 0
KMC1 090234Z 19007KT 18/10 A299 RMK A01 T01770100  RH  061%=      5-min Rain = 0
KMC1 090235Z 19005KT 18/10 A299 RMK A01 T01770101  RH  061%=      5-min Rain = 0
KMC1 090236Z 19005KT 18/10 A299 RMK A01 T01770100  RH  061%=      5-min Rain = 0
KMC1 090237Z 18005KT 18/10 A299 RMK A01 T01760101  RH  061%=      5-min Rain = 0
KMC1 090238Z 19007KT 18/10 A299 RMK A01 T01760101  RH  061%=      5-min Rain = 0
KMC1 090239Z 19006KT 18/10 A299 RMK A01 T01760101  RH  061%=      5-min Rain = 0
KMC1 090240Z 18005KT 18/10 A299 RMK A01 T01760101  RH  061%=      5-min Rain = 0
KMC1 090241Z 18006KT 18/10 A299 RMK A01 T01760102  RH  062%=      5-min Rain = 0
KMC1 090242Z 19006KT 18/10 A299 RMK A01 T01760102  RH  062%=      5-min Rain = 0
KMC1 090243Z 19007KT 18/10 A299 RMK A01 T01760102  RH  062%=      5-min Rain = 0
KMC1 090244Z 20004KT 18/10 A299 RMK A01 T01760102  RH  062%=      5-min Rain = 0
KMC1 090245Z 20005KT 18/10 A299 RMK A01 T01760102  RH  062%=      5-min Rain = 0
KMC1 090246Z 19006KT 18/10 A299 RMK A01 T01760102  RH  062%=      5-min Rain = 0
KMC1 090247Z 19006KT 18/10 A299 RMK A01 T01760102  RH  062%=      5-min Rain = 0
KMC1 090248Z 19006KT 18/10 A299 RMK A01 T01760103  RH  062%=      5-min Rain = 0
KMC1 090249Z 19007KT 18/10 A2989 RMK A01 T01760103  RH  062%=      5-min Rain = 0
KMC1 090250Z 19006KT 18/10 A299 RMK A01 T01760103  RH  062%=      5-min Rain = 0
KMC1 090251Z 20005KT 18/10 A2989 RMK A01 T01770103  RH  062%=      5-min Rain = 0
KMC1 090252Z 19005KT 18/10 A2989 RMK A01 T01770104  RH  062%=      5-min Rain = 0
KMC1 090253Z 19006KT 18/10 A2989 RMK A01 T01760104  RH  062%=      5-min Rain = 0
KMC1 090254Z 19006KT 18/10 A2989 RMK A01 T01760104  RH  063%=      5-min Rain = 0
KMC1 090255Z 19007KT 18/10 A2989 RMK A01 T01760104  RH  063%=      5-min Rain = 0
KMC1 090256Z 19006KT 18/11 A2989 RMK A01 T01760105  RH  063%=      5-min Rain = 0
KMC1 090257Z 19005KT 18/11 A2989 RMK A01 T01770105  RH  063%=      5-min Rain = 0
KMC1 090258Z 19005KT 18/11 A2989 RMK A01 T01770105  RH  063%=      5-min Rain = 0
KMC1 090259Z 19007KT 18/11 A2989 RMK A01 T01770106  RH  063%=      5-min Rain = 0
KMC1 090300Z 19006KT 18/11 A2989 RMK A01 T01770106  RH  063%=      5-min Rain = 0
KMC1 090301Z 19004KT 18/11 A2989 RMK A01 T01770106  RH  063%=      5-min Rain = 0
KMC1 090302Z 20006KT 18/11 A2989 RMK A01 T01770106  RH  063%=      5-min Rain = 0
KMC1 090303Z 20007KT 18/11 A299 RMK A01 T01770107  RH  063%=      5-min Rain = 0
KMC1 090304Z 19007KT 18/11 A299 RMK A01 T01770107  RH  064%=      5-min Rain = 0
KMC1 090305Z 19007KT 18/11 A299 RMK A01 T01770108  RH  064%=      5-min Rain = 0
KMC1 090306Z 19008KT 18/11 A299 RMK A01 T01770108  RH  064%=      5-min Rain = 0
KMC1 090307Z 19007KT 18/11 A299 RMK A01 T01780108  RH  064%=      5-min Rain = 0
KMC1 090308Z 19007KT 18/11 A299 RMK A01 T01780109  RH  064%=      5-min Rain = 0
KMC1 090309Z 20007KT 18/11 A299 RMK A01 T01780109  RH  064%=      5-min Rain = 0
KMC1 090310Z 19005KT 18/11 A2989 RMK A01 T01780109  RH  064%=      5-min Rain = 0
KMC1 090311Z 19008KT 18/11 A2989 RMK A01 T01780110  RH  064%=      5-min Rain = 0
KMC1 090312Z 20006KT 18/11 A299 RMK A01 T01780111  RH  065%=      5-min Rain = 0
KMC1 090313Z 19007KT 18/11 A299 RMK A01 T01790111  RH  064%=      5-min Rain = 0
KMC1 090314Z 20006KT 18/11 A299 RMK A01 T01790111  RH  065%=      5-min Rain = 0
KMC1 090315Z 19005KT 18/11 A299 RMK A01 T01790112  RH  065%=      5-min Rain = 0
KMC1 090316Z 21007KT 18/11 A299 RMK A01 T01790112  RH  065%=      5-min Rain = 0
KMC1 090317Z 20007KT 18/11 A2989 RMK A01 T01790113  RH  065%=      5-min Rain = 0
KMC1 090318Z 19007KT 18/11 A299 RMK A01 T01790113  RH  065%=      5-min Rain = 0
KMC1 090319Z 20008KT 18/11 A299 RMK A01 T01790113  RH  065%=      5-min Rain = 0
KMC1 090320Z 20005KT 18/11 A299 RMK A01 T01790113  RH  065%=      5-min Rain = 0
KMC1 090321Z 20008KT 18/11 A2989 RMK A01 T01790114  RH  065%=      5-min Rain = 0
KMC1 090322Z 20008KT 18/11 A299 RMK A01 T01800114  RH  065%=      5-min Rain = 0
KMC1 090323Z 20006KT 18/11 A299 RMK A01 T01800114  RH  065%=      5-min Rain = 0
KMC1 090324Z 19005KT 18/11 A299 RMK A01 T01800114  RH  065%=      5-min Rain = 0
KMC1 090325Z 20007KT 18/12 A299 RMK A01 T01800115  RH  066%=      5-min Rain = 0
KMC1 090326Z 20007KT 18/12 A299 RMK A01 T01800115  RH  066%=      5-min Rain = 0
KMC1 090327Z 19007KT 18/12 A299 RMK A01 T01800116  RH  066%=      5-min Rain = 0
KMC1 090328Z 21008KT 18/12 A299 RMK A01 T01800115  RH  066%=      5-min Rain = 0
KMC1 090329Z 19006KT 18/12 A299 RMK A01 T01800116  RH  066%=      5-min Rain = 0
KMC1 090330Z 20005KT 18/12 A299 RMK A01 T01800116  RH  066%=      5-min Rain = 0
KMC1 090331Z 20007KT 18/12 A299 RMK A01 T01800116  RH  066%=      5-min Rain = 0
KMC1 090332Z 20006KT 18/12 A299 RMK A01 T01800117  RH  067%=      5-min Rain = 0
KMC1 090333Z 20005KT 18/12 A299 RMK A01 T01790116  RH  067%=      5-min Rain = 0
KMC1 090334Z 19005KT 18/12 A299 RMK A01 T01790117  RH  067%=      5-min Rain = 0
KMC1 090335Z 19008KT 18/12 A299 RMK A01 T01790117  RH  067%=      5-min Rain = 0
KMC1 090336Z 20006KT 18/12 A299 RMK A01 T01790117  RH  067%=      5-min Rain = 0
KMC1 090337Z 21008G13KT 18/12 A299 RMK A01 T01790117  RH  067%=      5-min Rain = 0
KMC1 090338Z 21007KT 18/12 A299 RMK A01 T01790117  RH  067%=      5-min Rain = 0
KMC1 090339Z 20006KT 18/12 A299 RMK A01 T01790117  RH  067%=      5-min Rain = 0
KMC1 090340Z 19008KT 18/12 A299 RMK A01 T01790117  RH  067%=      5-min Rain = 0
KMC1 090341Z 20007KT 18/12 A299 RMK A01 T01790117  RH  067%=      5-min Rain = 0
KMC1 090342Z 20009G14KT 18/12 A299 RMK A01 T01790117  RH  067%=      5-min Rain = 0
KMC1 090343Z 20008KT 18/12 A299 RMK A01 T01790118  RH  067%=      5-min Rain = 0
KMC1 090344Z 20008KT 18/12 A299 RMK A01 T01790117  RH  067%=      5-min Rain = 0
KMC1 090345Z 19009G14KT 18/12 A299 RMK A01 T01800118  RH  067%=      5-min Rain = 0
KMC1 090346Z 20009KT 18/12 A299 RMK A01 T01790117  RH  067%=      5-min Rain = 0
KMC1 090347Z 20009KT 18/12 A299 RMK A01 T01790118  RH  067%=      5-min Rain = 0
KMC1 090348Z 20007G13KT 18/12 A299 RMK A01 T01790118  RH  067%=      5-min Rain = 0
KMC1 090349Z 19009G15KT 18/12 A299 RMK A01 T01790118  RH  068%=      5-min Rain = 0
KMC1 090350Z 20007KT 18/12 A299 RMK A01 T01790119  RH  068%=      5-min Rain = 0
KMC1 090351Z 20006KT 18/12 A299 RMK A01 T01790118  RH  068%=      5-min Rain = 0
KMC1 090352Z 20007KT 18/12 A299 RMK A01 T01790118  RH  068%=      5-min Rain = 0
KMC1 090353Z 20007G12KT 18/12 A299 RMK A01 T01780118  RH  068%=      5-min Rain = 0
KMC1 090354Z 20006KT 18/12 A299 RMK A01 T01780118  RH  068%=      5-min Rain = 0
KMC1 090355Z 20007KT 18/12 A299 RMK A01 T01780118  RH  068%=      5-min Rain = 0
KMC1 090356Z 20009KT 18/12 A299 RMK A01 T01780118  RH  068%=      5-min Rain = 0
KMC1 090357Z 20007G12KT 18/12 A299 RMK A01 T01770118  RH  068%=      5-min Rain = 0
KMC1 090358Z 20009KT 18/12 A299 RMK A01 T01780119  RH  068%=      5-min Rain = 0
KMC1 090359Z 20008KT 18/12 A299 RMK A01 T01770119  RH  068%=      5-min Rain = 0
KMC1 090400Z 21009KT 18/12 A299 RMK A01 T01770118  RH  068%=      5-min Rain = 0
KMC1 090401Z 21006G11KT 18/12 A299 RMK A01 T01780119  RH  068%=      5-min Rain = 0
KMC1 090402Z 21008KT 18/12 A299 RMK A01 T01770119  RH  068%=      5-min Rain = 0
KMC1 090403Z 20010KT 18/12 A299 RMK A01 T01770119  RH  069%=      5-min Rain = 0
KMC1 090404Z 20009KT 18/12 A299 RMK A01 T01780119  RH  068%=      5-min Rain = 0
KMC1 090405Z 20006KT 18/12 A299 RMK A01 T01780119  RH  068%=      5-min Rain = 0
KMC1 090406Z 20006KT 18/12 A299 RMK A01 T01780119  RH  068%=      5-min Rain = 0
KMC1 090407Z 20005KT 18/12 A299 RMK A01 T01770119  RH  069%=      5-min Rain = 0
KMC1 090408Z 21006KT 18/12 A299 RMK A01 T01760119  RH  069%=      5-min Rain = 0
KMC1 090409Z 21007KT 18/12 A299 RMK A01 T01760119  RH  069%=      5-min Rain = 0
KMC1 090410Z 21006KT 18/12 A299 RMK A01 T01750119  RH  069%=      5-min Rain = 0
KMC1 090411Z 21007G13KT 18/12 A299 RMK A01 T01750119  RH  070%=      5-min Rain = 0
KMC1 090412Z 21007KT 18/12 A299 RMK A01 T01750119  RH  070%=      5-min Rain = 0
KMC1 090413Z 21005KT 18/12 A299 RMK A01 T01750119  RH  069%=      5-min Rain = 0
KMC1 090414Z 20007KT 18/12 A299 RMK A01 T01750119  RH  069%=      5-min Rain = 0
KMC1 090415Z 21005KT 18/12 A299 RMK A01 T01750119  RH  070%=      5-min Rain = 0
KMC1 090416Z 21005KT 17/12 A299 RMK A01 T01740119  RH  070%=      5-min Rain = 0
KMC1 090417Z 21004KT 17/12 A299 RMK A01 T01730118  RH  070%=      5-min Rain = 0
KMC1 090418Z 20007KT 17/12 A299 RMK A01 T01730119  RH  070%=      5-min Rain = 0
KMC1 090419Z 20006KT 17/12 A299 RMK A01 T01730119  RH  071%=      5-min Rain = 0
KMC1 090420Z 22004KT 17/12 A299 RMK A01 T01730119  RH  071%=      5-min Rain = 0
KMC1 090421Z 20006KT 17/12 A299 RMK A01 T01730119  RH  071%=      5-min Rain = 0
KMC1 090422Z 20005KT 17/12 A299 RMK A01 T01730119  RH  071%=      5-min Rain = 0
KMC1 090423Z 21005KT 17/12 A299 RMK A01 T01720119  RH  071%=      5-min Rain = 0
KMC1 090424Z 20006KT 17/12 A299 RMK A01 T01720119  RH  071%=      5-min Rain = 0
KMC1 090425Z 21007KT 17/12 A299 RMK A01 T01720119  RH  071%=      5-min Rain = 0
KMC1 090426Z 20006KT 17/12 A299 RMK A01 T01720119  RH  071%=      5-min Rain = 0
KMC1 090427Z 20005KT 17/12 A299 RMK A01 T01720119  RH  071%=      5-min Rain = 0
KMC1 090428Z 20006KT 17/12 A299 RMK A01 T01710119  RH  071%=      5-min Rain = 0
KMC1 090429Z 21006KT 17/12 A299 RMK A01 T01710119  RH  072%=      5-min Rain = 0
KMC1 090430Z 20005KT 17/12 A299 RMK A01 T01710119  RH  072%=      5-min Rain = 0
KMC1 090431Z 21005KT 17/12 A299 RMK A01 T01710119  RH  072%=      5-min Rain = 0
KMC1 090432Z 20006KT 17/12 A299 RMK A01 T01700119  RH  072%=      5-min Rain = 0
KMC1 090433Z 20005KT 17/12 A299 RMK A01 T01700119  RH  072%=      5-min Rain = 0
KMC1 090434Z 20005KT 17/12 A299 RMK A01 T01700120  RH  072%=      5-min Rain = 0
KMC1 090435Z 20004KT 17/12 A299 RMK A01 T01700119  RH  072%=      5-min Rain = 0
KMC1 090436Z 21006KT 17/12 A299 RMK A01 T01700119  RH  072%=      5-min Rain = 0
KMC1 090437Z 21005KT 17/12 A299 RMK A01 T01700120  RH  072%=      5-min Rain = 0
KMC1 090438Z 21006KT 17/12 A299 RMK A01 T01700120  RH  072%=      5-min Rain = 0
KMC1 090439Z 21004KT 17/12 A299 RMK A01 T01700120  RH  072%=      5-min Rain = 0
KMC1 090440Z 21005KT 17/12 A299 RMK A01 T01700120  RH  073%=      5-min Rain = 0
KMC1 090441Z 21005KT 17/12 A299 RMK A01 T01690120  RH  073%=      5-min Rain = 0
KMC1 090442Z 21004KT 17/12 A299 RMK A01 T01690120  RH  073%=      5-min Rain = 0
KMC1 090443Z 21004KT 17/12 A299 RMK A01 T01680119  RH  073%=      5-min Rain = 0
KMC1 090444Z 22004KT 17/12 A299 RMK A01 T01680119  RH  073%=      5-min Rain = 0
KMC1 090445Z 21004KT 17/12 A299 RMK A01 T01670119  RH  073%=      5-min Rain = 0
KMC1 090446Z 21004KT 17/12 A299 RMK A01 T01670119  RH  074%=      5-min Rain = 0
KMC1 090447Z 21004KT 17/12 A299 RMK A01 T01660120  RH  074%=      5-min Rain = 0
KMC1 090448Z 22006KT 17/12 A299 RMK A01 T01660120  RH  074%=      5-min Rain = 0
KMC1 090449Z 22005KT 17/12 A299 RMK A01 T01660120  RH  074%=      5-min Rain = 0
KMC1 090450Z 21005KT 17/12 A299 RMK A01 T01660119  RH  074%=      5-min Rain = 0
KMC1 090451Z 21004KT 17/12 A299 RMK A01 T01660120  RH  074%=      5-min Rain = 0
KMC1 090452Z 22004KT 17/12 A299 RMK A01 T01660120  RH  074%=      5-min Rain = 0
KMC1 090453Z 21004KT 17/12 A299 RMK A01 T01650120  RH  074%=      5-min Rain = 0
KMC1 090454Z 21005KT 17/12 A299 RMK A01 T01650120  RH  075%=      5-min Rain = 0
KMC1 090455Z 21004KT 17/12 A299 RMK A01 T01650120  RH  075%=      5-min Rain = 0
KMC1 090456Z 21005KT 17/12 A299 RMK A01 T01650120  RH  075%=      5-min Rain = 0
KMC1 090457Z 20005KT 17/12 A299 RMK A01 T01650120  RH  075%=      5-min Rain = 0
KMC1 090458Z 21005KT 17/12 A299 RMK A01 T01650120  RH  075%=      5-min Rain = 0
KMC1 090459Z 21004KT 17/12 A299 RMK A01 T01650120  RH  075%=      5-min Rain = 0
KMC1 090500Z 21005KT 16/12 A299 RMK A01 T01640120  RH  075%=      5-min Rain = 0
KMC1 090501Z 21004KT 16/12 A299 RMK A01 T01640120  RH  075%=      5-min Rain = 0
KMC1 090502Z 21005KT 16/12 A299 RMK A01 T01640120  RH  075%=      5-min Rain = 0
KMC1 090503Z 22007KT 16/12 A299 RMK A01 T01630120  RH  076%=      5-min Rain = 0
KMC1 090504Z 22004KT 16/12 A299 RMK A01 T01640121  RH  075%=      5-min Rain = 0
KMC1 090505Z 21004KT 16/12 A299 RMK A01 T01640120  RH  075%=      5-min Rain = 0
KMC1 090506Z 21005KT 16/12 A299 RMK A01 T01640121  RH  075%=      5-min Rain = 0
KMC1 090507Z 21004KT 16/12 A299 RMK A01 T01640121  RH  076%=      5-min Rain = 0
KMC1 090508Z 21006KT 16/12 A299 RMK A01 T01640121  RH  076%=      5-min Rain = 0
KMC1 090509Z 22004KT 16/12 A299 RMK A01 T01640121  RH  076%=      5-min Rain = 0
KMC1 090510Z 21005KT 16/12 A299 RMK A01 T01640121  RH  076%=      5-min Rain = 0
KMC1 090511Z 21004KT 16/12 A299 RMK A01 T01640121  RH  076%=      5-min Rain = 0
KMC1 090512Z 22005KT 16/12 A299 RMK A01 T01630121  RH  076%=      5-min Rain = 0
KMC1 090513Z 22004KT 16/12 A299 RMK A01 T01640121  RH  076%=      5-min Rain = 0
KMC1 090514Z 22004KT 16/12 A299 RMK A01 T01630121  RH  076%=      5-min Rain = 0
KMC1 090515Z 22004KT 16/12 A299 RMK A01 T01630121  RH  076%=      5-min Rain = 0
KMC1 090516Z 22004KT 16/12 A299 RMK A01 T01620121  RH  076%=      5-min Rain = 0
KMC1 090517Z 22004KT 16/12 A299 RMK A01 T01620121  RH  076%=      5-min Rain = 0
KMC1 090518Z 22003KT 16/12 A299 RMK A01 T01620121  RH  077%=      5-min Rain = 0
KMC1 090519Z 22003KT 16/12 A299 RMK A01 T01620122  RH  077%=      5-min Rain = 0
KMC1 090520Z 21003KT 16/12 A299 RMK A01 T01620121  RH  077%=      5-min Rain = 0
KMC1 090521Z 21004KT 16/12 A299 RMK A01 T01620121  RH  077%=      5-min Rain = 0
KMC1 090522Z 22003KT 16/12 A299 RMK A01 T01620121  RH  077%=      5-min Rain = 0
KMC1 090523Z 22003KT 16/12 A299 RMK A01 T01620121  RH  077%=      5-min Rain = 0
KMC1 090524Z 22003KT 16/12 A2989 RMK A01 T01610122  RH  077%=      5-min Rain = 0
KMC1 090525Z 21003KT 16/12 A2989 RMK A01 T01610122  RH  077%=      5-min Rain = 0
KMC1 090526Z 21003KT 16/12 A2989 RMK A01 T01600121  RH  078%=      5-min Rain = 0
KMC1 090527Z 22003KT 16/12 A2989 RMK A01 T01600121  RH  078%=      5-min Rain = 0
KMC1 090528Z 21003KT 16/12 A2989 RMK A01 T01600121  RH  078%=      5-min Rain = 0
KMC1 090529Z 22003KT 16/12 A2989 RMK A01 T01590121  RH  078%=      5-min Rain = 0
KMC1 090530Z 21003KT 16/12 A2989 RMK A01 T01590122  RH  078%=      5-min Rain = 0
KMC1 090531Z 21003KT 16/12 A2989 RMK A01 T01590121  RH  078%=      5-min Rain = 0
KMC1 090532Z 22002KT 16/12 A2989 RMK A01 T01590122  RH  079%=      5-min Rain = 0
KMC1 090533Z 22003KT 16/12 A2989 RMK A01 T01580121  RH  078%=      5-min Rain = 0
KMC1 090534Z 22003KT 16/12 A2989 RMK A01 T01580121  RH  079%=      5-min Rain = 0
KMC1 090535Z 23002KT 16/12 A2989 RMK A01 T01580121  RH  079%=      5-min Rain = 0
KMC1 090536Z 22004KT 16/12 A2989 RMK A01 T01570121  RH  079%=      5-min Rain = 0
KMC1 090537Z 23003KT 16/12 A2989 RMK A01 T01570121  RH  079%=      5-min Rain = 0
KMC1 090538Z 22003KT 16/12 A2989 RMK A01 T01560121  RH  079%=      5-min Rain = 0
KMC1 090539Z 22004KT 16/12 A2989 RMK A01 T01560121  RH  080%=      5-min Rain = 0
KMC1 090540Z 22004KT 16/12 A2989 RMK A01 T01550121  RH  080%=      5-min Rain = 0
KMC1 090541Z 21004KT 16/12 A2989 RMK A01 T01550121  RH  080%=      5-min Rain = 0
KMC1 090542Z 21005KT 16/12 A2989 RMK A01 T01550121  RH  080%=      5-min Rain = 0
KMC1 090543Z 21004KT 16/12 A2989 RMK A01 T01550121  RH  080%=      5-min Rain = 0
KMC1 090544Z 21004KT 16/12 A2989 RMK A01 T01550121  RH  080%=      5-min Rain = 0
KMC1 090545Z 22004KT 15/12 A2989 RMK A01 T01540121  RH  081%=      5-min Rain = 0
KMC1 090546Z 21004KT 15/12 A2989 RMK A01 T01540120  RH  080%=      5-min Rain = 0
KMC1 090547Z 22004KT 15/12 A2989 RMK A01 T01530120  RH  081%=      5-min Rain = 0
KMC1 090548Z 23004KT 15/12 A2989 RMK A01 T01530121  RH  081%=      5-min Rain = 0
KMC1 090549Z 23003KT 15/12 A2989 RMK A01 T01530121  RH  081%=      5-min Rain = 0
KMC1 090550Z 24003KT 15/12 A2989 RMK A01 T01530121  RH  081%=      5-min Rain = 0
KMC1 090551Z 25003KT 15/12 A2989 RMK A01 T01520121  RH  081%=      5-min Rain = 0
KMC1 090552Z 25003KT 15/12 A299 RMK A01 T01520121  RH  082%=      5-min Rain = 0
KMC1 090553Z 26003KT 15/12 A299 RMK A01 T01520120  RH  081%=      5-min Rain = 0
KMC1 090554Z 27003KT 15/12 A299 RMK A01 T01510120  RH  082%=      5-min Rain = 0
KMC1 090555Z 27003KT 15/12 A299 RMK A01 T01500120  RH  082%=      5-min Rain = 0
KMC1 090556Z 28003KT 15/12 A299 RMK A01 T01490119  RH  082%=      5-min Rain = 0
KMC1 090557Z 28003KT 15/12 A299 RMK A01 T01480118  RH  082%=      5-min Rain = 0
KMC1 090558Z 28004KT 15/12 A299 RMK A01 T01470118  RH  082%=      5-min Rain = 0
KMC1 090559Z 27004KT 15/12 A299 RMK A01 T01460118  RH  083%=      5-min Rain = 0

Page generated in 0.1232 seconds.